Observation data for Gail on 04/08/2021      Previous  Date  Next       Current Mesonet Observations  Soil Data  Daily Summary Page  Observations in Plain Language
KGGS 080500Z 34003KT 13/M06 A2989 RMK A01 T01251057  RH  028%=      5-min Rain = 0
KGGS 080501Z 33003KT 12/M06 A2989 RMK A01 T01241056  RH  028%=      5-min Rain = 0
KGGS 080502Z 34003KT 12/M06 A2989 RMK A01 T01241056  RH  028%=      5-min Rain = 0
KGGS 080503Z 34002KT 12/M06 A2989 RMK A01 T01231056  RH  028%=      5-min Rain = 0
KGGS 080504Z 34002KT 12/M06 A2989 RMK A01 T01231056  RH  028%=      5-min Rain = 0
KGGS 080505Z 34002KT 12/M06 A2989 RMK A01 T01221056  RH  028%=      5-min Rain = 0
KGGS 080506Z 34001KT 12/M06 A2989 RMK A01 T01221056  RH  028%=      5-min Rain = 0
KGGS 080507Z 36001KT 12/M06 A2989 RMK A01 T01231056  RH  028%=      5-min Rain = 0
KGGS 080508Z 36001KT 13/M06 A2989 RMK A01 T01261056  RH  028%=      5-min Rain = 0
KGGS 080509Z 35001KT 13/M06 A2989 RMK A01 T01281056  RH  027%=      5-min Rain = 0
KGGS 080510Z 00001KT 13/M06 A2989 RMK A01 T01301056  RH  027%=      5-min Rain = 0
KGGS 080511Z 35002KT 13/M06 A2989 RMK A01 T01311056  RH  027%=      5-min Rain = 0
KGGS 080512Z 35002KT 13/M06 A2989 RMK A01 T01311057  RH  027%=      5-min Rain = 0
KGGS 080513Z 35002KT 13/M06 A2989 RMK A01 T01301057  RH  027%=      5-min Rain = 0
KGGS 080514Z 34002KT 13/M06 A2989 RMK A01 T01291057  RH  027%=      5-min Rain = 0
KGGS 080515Z 33001KT 13/M06 A2989 RMK A01 T01301057  RH  027%=      5-min Rain = 0
KGGS 080516Z 34002KT 13/M06 A2989 RMK A01 T01311057  RH  027%=      5-min Rain = 0
KGGS 080517Z 34001KT 13/M06 A2989 RMK A01 T01321057  RH  026%=      5-min Rain = 0
KGGS 080518Z 35001KT 13/M06 A2989 RMK A01 T01321058  RH  026%=      5-min Rain = 0
KGGS 080519Z 01001KT 13/M06 A2989 RMK A01 T01311058  RH  026%=      5-min Rain = 0
KGGS 080520Z 00001KT 13/M06 A2989 RMK A01 T01311059  RH  026%=      5-min Rain = 0
KGGS 080521Z 01001KT 13/M06 A2989 RMK A01 T01301060  RH  026%=      5-min Rain = 0
KGGS 080522Z 01000KT 13/M06 A2989 RMK A01 T01291059  RH  026%=      5-min Rain = 0
KGGS 080523Z 03000KT 13/M06 A2989 RMK A01 T01281059  RH  027%=      5-min Rain = 0
KGGS 080524Z 07001KT 13/M06 A2989 RMK A01 T01281060  RH  027%=      5-min Rain = 0
KGGS 080525Z 07000KT 13/M06 A2989 RMK A01 T01281061  RH  026%=      5-min Rain = 0
KGGS 080526Z 07001KT 13/M06 A2989 RMK A01 T01251059  RH  027%=      5-min Rain = 0
KGGS 080527Z 07001KT 12/M06 A2989 RMK A01 T01221058  RH  028%=      5-min Rain = 0
KGGS 080528Z 07001KT 12/M06 A2989 RMK A01 T01191059  RH  028%=      5-min Rain = 0
KGGS 080529Z 08002KT 12/M06 A2989 RMK A01 T01151059  RH  029%=      5-min Rain = 0
KGGS 080530Z 08002KT 11/M06 A2989 RMK A01 T01131058  RH  030%=      5-min Rain = 0
KGGS 080531Z 08002KT 11/M06 A2989 RMK A01 T01101058  RH  030%=      5-min Rain = 0
KGGS 080532Z 08002KT 11/M06 A2989 RMK A01 T01091058  RH  031%=      5-min Rain = 0
KGGS 080533Z 09003KT 11/M06 A2989 RMK A01 T01081057  RH  031%=      5-min Rain = 0
KGGS 080534Z 09003KT 11/M06 A2989 RMK A01 T01091057  RH  031%=      5-min Rain = 0
KGGS 080535Z 10003KT 11/M06 A2989 RMK A01 T01111058  RH  030%=      5-min Rain = 0
KGGS 080536Z 10003KT 11/M06 A2989 RMK A01 T01131058  RH  030%=      5-min Rain = 0
KGGS 080537Z 10003KT 12/M06 A2989 RMK A01 T01151058  RH  029%=      5-min Rain = 0
KGGS 080538Z 09003KT 12/M06 A2989 RMK A01 T01181058  RH  029%=      5-min Rain = 0
KGGS 080539Z 10003KT 12/M06 A2989 RMK A01 T01201058  RH  028%=      5-min Rain = 0
KGGS 080540Z 10004KT 12/M06 A2989 RMK A01 T01231058  RH  028%=      5-min Rain = 0
KGGS 080541Z 11004KT 13/M06 A2989 RMK A01 T01261058  RH  027%=      5-min Rain = 0
KGGS 080542Z 11004KT 13/M06 A2989 RMK A01 T01281058  RH  027%=      5-min Rain = 0
KGGS 080543Z 11004KT 13/M06 A2989 RMK A01 T01311058  RH  026%=      5-min Rain = 0
KGGS 080544Z 12004KT 14/M06 A2989 RMK A01 T01351058  RH  026%=      5-min Rain = 0
KGGS 080545Z 12004KT 14/M06 A2989 RMK A01 T01371059  RH  025%=      5-min Rain = 0
KGGS 080546Z 12004KT 14/M06 A2989 RMK A01 T01391059  RH  025%=      5-min Rain = 0
KGGS 080547Z 12004KT 14/M06 A2989 RMK A01 T01391059  RH  025%=      5-min Rain = 0
KGGS 080548Z 12003KT 14/M06 A2989 RMK A01 T01401060  RH  025%=      5-min Rain = 0
KGGS 080549Z 12003KT 14/M06 A299 RMK A01 T01411060  RH  024%=      5-min Rain = 0
KGGS 080550Z 12003KT 14/M06 A299 RMK A01 T01421060  RH  024%=      5-min Rain = 0
KGGS 080551Z 11003KT 14/M06 A2989 RMK A01 T01411060  RH  024%=      5-min Rain = 0
KGGS 080552Z 11003KT 14/M06 A299 RMK A01 T01411060  RH  024%=      5-min Rain = 0
KGGS 080553Z 11003KT 14/M06 A299 RMK A01 T01401059  RH  025%=      5-min Rain = 0
KGGS 080554Z 11002KT 14/M06 A299 RMK A01 T01391059  RH  025%=      5-min Rain = 0
KGGS 080555Z 12003KT 14/M06 A299 RMK A01 T01381059  RH  025%=      5-min Rain = 0
KGGS 080556Z 12003KT 14/M06 A299 RMK A01 T01371060  RH  025%=      5-min Rain = 0
KGGS 080557Z 13003KT 14/M06 A299 RMK A01 T01351060  RH  025%=      5-min Rain = 0
KGGS 080558Z 13003KT 13/M06 A299 RMK A01 T01341059  RH  026%=      5-min Rain = 0
KGGS 080559Z 13003KT 13/M06 A299 RMK A01 T01341059  RH  025%=      5-min Rain = 0
KGGS 080600Z 13003KT 13/M06 A299 RMK A01 T01341059  RH  025%=      5-min Rain = 0
KGGS 080601Z 13003KT 13/M06 A299 RMK A01 T01341060  RH  025%=      5-min Rain = 0
KGGS 080602Z 12003KT 13/M06 A299 RMK A01 T01341060  RH  026%=      5-min Rain = 0
KGGS 080603Z 12003KT 13/M06 A299 RMK A01 T01341059  RH  026%=      5-min Rain = 0
KGGS 080604Z 12003KT 13/M06 A299 RMK A01 T01331059  RH  026%=      5-min Rain = 0
KGGS 080605Z 12003KT 13/M06 A299 RMK A01 T01341060  RH  026%=      5-min Rain = 0
KGGS 080606Z 11003KT 13/M06 A299 RMK A01 T01341060  RH  026%=      5-min Rain = 0
KGGS 080607Z 11003KT 13/M06 A299 RMK A01 T01341060  RH  026%=      5-min Rain = 0
KGGS 080608Z 11003KT 13/M06 A299 RMK A01 T01341060  RH  026%=      5-min Rain = 0
KGGS 080609Z 11003KT 13/M06 A299 RMK A01 T01341060  RH  026%=      5-min Rain = 0
KGGS 080610Z 11003KT 13/M06 A299 RMK A01 T01331060  RH  026%=      5-min Rain = 0
KGGS 080611Z 10002KT 13/M06 A299 RMK A01 T01331060  RH  026%=      5-min Rain = 0
KGGS 080612Z 10002KT 13/M06 A299 RMK A01 T01331060  RH  026%=      5-min Rain = 0
KGGS 080613Z 09002KT 13/M06 A299 RMK A01 T01321060  RH  026%=      5-min Rain = 0
KGGS 080614Z 10002KT 13/M06 A299 RMK A01 T01311060  RH  026%=      5-min Rain = 0
KGGS 080615Z 10002KT 13/M06 A299 RMK A01 T01301062  RH  026%=      5-min Rain = 0
KGGS 080616Z 11002KT 13/M06 A299 RMK A01 T01281063  RH  026%=      5-min Rain = 0
KGGS 080617Z 11002KT 13/M06 A299 RMK A01 T01261063  RH  026%=      5-min Rain = 0
KGGS 080618Z 11002KT 13/M06 A299 RMK A01 T01251062  RH  027%=      5-min Rain = 0
KGGS 080619Z 11002KT 12/M06 A299 RMK A01 T01231062  RH  027%=      5-min Rain = 0
KGGS 080620Z 11002KT 12/M06 A299 RMK A01 T01221061  RH  027%=      5-min Rain = 0
KGGS 080621Z 11001KT 12/M06 A299 RMK A01 T01211061  RH  028%=      5-min Rain = 0
KGGS 080622Z 11001KT 12/M06 A299 RMK A01 T01211061  RH  028%=      5-min Rain = 0
KGGS 080623Z 11001KT 12/M06 A2989 RMK A01 T01221060  RH  028%=      5-min Rain = 0
KGGS 080624Z 11002KT 12/M06 A2989 RMK A01 T01231059  RH  028%=      5-min Rain = 0
KGGS 080625Z 11002KT 12/M06 A2989 RMK A01 T01231059  RH  028%=      5-min Rain = 0
KGGS 080626Z 11002KT 12/M06 A2989 RMK A01 T01221060  RH  028%=      5-min Rain = 0
KGGS 080627Z 11002KT 12/M06 A2989 RMK A01 T01211062  RH  027%=      5-min Rain = 0
KGGS 080628Z 11002KT 12/M06 A2989 RMK A01 T01191062  RH  028%=      5-min Rain = 0
KGGS 080629Z 11002KT 12/M06 A2989 RMK A01 T01161061  RH  028%=      5-min Rain = 0
KGGS 080630Z 12002KT 11/M06 A2989 RMK A01 T01141061  RH  029%=      5-min Rain = 0
KGGS 080631Z 12002KT 11/M06 A2989 RMK A01 T01131060  RH  029%=      5-min Rain = 0
KGGS 080632Z 12003KT 11/M06 A2989 RMK A01 T01121060  RH  029%=      5-min Rain = 0
KGGS 080633Z 12003KT 11/M06 A2989 RMK A01 T01121060  RH  030%=      5-min Rain = 0
KGGS 080634Z 12004KT 11/M06 A2989 RMK A01 T01121060  RH  030%=      5-min Rain = 0
KGGS 080635Z 12005KT 11/M06 A2989 RMK A01 T01121059  RH  029%=      5-min Rain = 0
KGGS 080636Z 12005KT 11/M06 A2989 RMK A01 T01131059  RH  029%=      5-min Rain = 0
KGGS 080637Z 12005KT 11/M06 A2989 RMK A01 T01131059  RH  029%=      5-min Rain = 0
KGGS 080638Z 12004KT 11/M06 A2989 RMK A01 T01131060  RH  029%=      5-min Rain = 0
KGGS 080639Z 12003KT 11/M06 A2989 RMK A01 T01121060  RH  029%=      5-min Rain = 0
KGGS 080640Z 12002KT 11/M06 A2989 RMK A01 T01121060  RH  029%=      5-min Rain = 0
KGGS 080641Z 11001KT 12/M06 A2989 RMK A01 T01151058  RH  029%=      5-min Rain = 0
KGGS 080642Z 11001KT 12/M06 A2989 RMK A01 T01201058  RH  028%=      5-min Rain = 0
KGGS 080643Z 07001KT 12/M06 A2989 RMK A01 T01241057  RH  028%=      5-min Rain = 0
KGGS 080644Z 06000KT 13/M06 A2989 RMK A01 T01261057  RH  027%=      5-min Rain = 0
KGGS 080645Z 00000KT 12/M06 A2989 RMK A01 T01241058  RH  028%=      5-min Rain = 0
KGGS 080646Z 00000KT 12/M06 A2989 RMK A01 T01181059  RH  029%=      5-min Rain = 0
KGGS 080647Z 07000KT 12/M06 A2989 RMK A01 T01151059  RH  029%=      5-min Rain = 0
KGGS 080648Z 08001KT 12/M06 A2989 RMK A01 T01151059  RH  029%=      5-min Rain = 0
KGGS 080649Z 10003KT 12/M06 A2989 RMK A01 T01151058  RH  029%=      5-min Rain = 0
KGGS 080650Z 10004KT 12/M06 A2989 RMK A01 T01151059  RH  029%=      5-min Rain = 0
KGGS 080651Z 10004KT 12/M06 A2989 RMK A01 T01161058  RH  029%=      5-min Rain = 0
KGGS 080652Z 11005KT 12/M06 A2989 RMK A01 T01151059  RH  029%=      5-min Rain = 0
KGGS 080653Z 11005KT 11/M06 A2989 RMK A01 T01101060  RH  030%=      5-min Rain = 0
KGGS 080654Z 11005KT 10/M06 A2989 RMK A01 T01041060  RH  031%=      5-min Rain = 0
KGGS 080655Z 11005KT 10/M06 A2989 RMK A01 T01001060  RH  032%=      5-min Rain = 0
KGGS 080656Z 11006KT 10/M06 A2989 RMK A01 T00971059  RH  033%=      5-min Rain = 0
KGGS 080657Z 11006KT 10/M06 A2989 RMK A01 T00961059  RH  033%=      5-min Rain = 0
KGGS 080658Z 12006KT 10/M06 A2989 RMK A01 T00951059  RH  033%=      5-min Rain = 0
KGGS 080659Z 12005KT 09/M06 A2989 RMK A01 T00941059  RH  033%=      5-min Rain = 0
KGGS 080700Z 11004KT 10/M06 A2989 RMK A01 T00951059  RH  033%=      5-min Rain = 0
KGGS 080701Z 11002KT 10/M06 A2989 RMK A01 T00971058  RH  033%=      5-min Rain = 0
KGGS 080702Z 30002KT 10/M06 A2989 RMK A01 T00991056  RH  033%=      5-min Rain = 0
KGGS 080703Z 32004KT 09/M06 A299 RMK A01 T00921056  RH  035%=      5-min Rain = 0
KGGS 080704Z 32004KT 09/M06 A299 RMK A01 T00881055  RH  036%=      5-min Rain = 0
KGGS 080705Z 32002KT 09/M05 A299 RMK A01 T00931052  RH  036%=      5-min Rain = 0
KGGS 080706Z 33002KT 10/M05 A299 RMK A01 T00971052  RH  034%=      5-min Rain = 0
KGGS 080707Z 32001KT 10/M05 A299 RMK A01 T01021052  RH  033%=      5-min Rain = 0
KGGS 080708Z 35002KT 11/M05 A299 RMK A01 T01051053  RH  032%=      5-min Rain = 0
KGGS 080709Z 01001KT 11/M05 A299 RMK A01 T01091054  RH  032%=      5-min Rain = 0
KGGS 080710Z 01002KT 11/M05 A299 RMK A01 T01101054  RH  031%=      5-min Rain = 0
KGGS 080711Z 03002KT 11/M06 A299 RMK A01 T01111055  RH  031%=      5-min Rain = 0
KGGS 080712Z 05002KT 11/M06 A299 RMK A01 T01101055  RH  031%=      5-min Rain = 0
KGGS 080713Z 06002KT 11/M06 A299 RMK A01 T01091055  RH  031%=      5-min Rain = 0
KGGS 080714Z 06003KT 11/M05 A299 RMK A01 T01051054  RH  032%=      5-min Rain = 0
KGGS 080715Z 06003KT 10/M06 A299 RMK A01 T01031055  RH  032%=      5-min Rain = 0
KGGS 080716Z 07003KT 10/M06 A299 RMK A01 T01001056  RH  033%=      5-min Rain = 0
KGGS 080717Z 07003KT 10/M06 A299 RMK A01 T00981056  RH  033%=      5-min Rain = 0
KGGS 080718Z 07003KT 10/M06 A299 RMK A01 T00971055  RH  034%=      5-min Rain = 0
KGGS 080719Z 08003KT 10/M06 A299 RMK A01 T00961056  RH  034%=      5-min Rain = 0
KGGS 080720Z 09003KT 10/M06 A299 RMK A01 T00951056  RH  034%=      5-min Rain = 0
KGGS 080721Z 10003KT 09/M06 A299 RMK A01 T00941056  RH  034%=      5-min Rain = 0
KGGS 080722Z 10003KT 10/M06 A299 RMK A01 T00951055  RH  034%=      5-min Rain = 0
KGGS 080723Z 10002KT 10/M06 A299 RMK A01 T00981056  RH  033%=      5-min Rain = 0
KGGS 080724Z 08002KT 10/M06 A299 RMK A01 T01021055  RH  033%=      5-min Rain = 0
KGGS 080725Z 06002KT 11/M06 A2989 RMK A01 T01061055  RH  032%=      5-min Rain = 0
KGGS 080726Z 05003KT 11/M06 A2989 RMK A01 T01091055  RH  031%=      5-min Rain = 0
KGGS 080727Z 06003KT 11/M06 A2989 RMK A01 T01111055  RH  031%=      5-min Rain = 0
KGGS 080728Z 05003KT 11/M06 A2989 RMK A01 T01131055  RH  030%=      5-min Rain = 0
KGGS 080729Z 00003KT 11/M06 A299 RMK A01 T01131056  RH  030%=      5-min Rain = 0
KGGS 080730Z 01003KT 11/M06 A299 RMK A01 T01061057  RH  031%=      5-min Rain = 0
KGGS 080731Z 00002KT 10/M06 A299 RMK A01 T01021057  RH  032%=      5-min Rain = 0
KGGS 080732Z 01002KT 10/M06 A299 RMK A01 T01011057  RH  032%=      5-min Rain = 0
KGGS 080733Z 02002KT 10/M06 A299 RMK A01 T01021057  RH  032%=      5-min Rain = 0
KGGS 080734Z 01002KT 10/M06 A299 RMK A01 T01031057  RH  032%=      5-min Rain = 0
KGGS 080735Z 36002KT 11/M06 A299 RMK A01 T01051057  RH  032%=      5-min Rain = 0
KGGS 080736Z 36002KT 11/M06 A299 RMK A01 T01061057  RH  031%=      5-min Rain = 0
KGGS 080737Z 36002KT 11/M06 A299 RMK A01 T01081057  RH  031%=      5-min Rain = 0
KGGS 080738Z 35002KT 11/M06 A299 RMK A01 T01101057  RH  030%=      5-min Rain = 0
KGGS 080739Z 34002KT 11/M06 A299 RMK A01 T01121057  RH  030%=      5-min Rain = 0
KGGS 080740Z 35003KT 11/M06 A299 RMK A01 T01131057  RH  030%=      5-min Rain = 0
KGGS 080741Z 35004KT 11/M06 A299 RMK A01 T01131057  RH  030%=      5-min Rain = 0
KGGS 080742Z 35003KT 11/M06 A299 RMK A01 T01141058  RH  030%=      5-min Rain = 0
KGGS 080743Z 00003KT 12/M06 A299 RMK A01 T01151058  RH  029%=      5-min Rain = 0
KGGS 080744Z 01004KT 12/M06 A299 RMK A01 T01151058  RH  029%=      5-min Rain = 0
KGGS 080745Z 01004KT 12/M06 A299 RMK A01 T01151058  RH  029%=      5-min Rain = 0
KGGS 080746Z 02004KT 12/M06 A299 RMK A01 T01151058  RH  029%=      5-min Rain = 0
KGGS 080747Z 03004KT 12/M06 A299 RMK A01 T01151058  RH  029%=      5-min Rain = 0
KGGS 080748Z 03004KT 12/M06 A299 RMK A01 T01161058  RH  029%=      5-min Rain = 0
KGGS 080749Z 03004KT 12/M06 A299 RMK A01 T01151058  RH  029%=      5-min Rain = 0
KGGS 080750Z 04003KT 12/M06 A299 RMK A01 T01151058  RH  029%=      5-min Rain = 0
KGGS 080751Z 04003KT 11/M06 A299 RMK A01 T01141059  RH  029%=      5-min Rain = 0
KGGS 080752Z 04003KT 11/M06 A299 RMK A01 T01141059  RH  029%=      5-min Rain = 0
KGGS 080753Z 03003KT 12/M06 A299 RMK A01 T01151058  RH  029%=      5-min Rain = 0
KGGS 080754Z 03002KT 12/M06 A299 RMK A01 T01161058  RH  029%=      5-min Rain = 0
KGGS 080755Z 03002KT 12/M06 A299 RMK A01 T01181058  RH  029%=      5-min Rain = 0
KGGS 080756Z 01002KT 12/M06 A299 RMK A01 T01191059  RH  028%=      5-min Rain = 0
KGGS 080757Z 36003KT 12/M06 A299 RMK A01 T01201059  RH  028%=      5-min Rain = 0
KGGS 080758Z 34003KT 12/M06 A299 RMK A01 T01201059  RH  028%=      5-min Rain = 0
KGGS 080759Z 31004KT 12/M06 A299 RMK A01 T01181060  RH  028%=      5-min Rain = 0
KGGS 080800Z 32004KT 11/M06 A299 RMK A01 T01121060  RH  029%=      5-min Rain = 0
KGGS 080801Z 33005KT 11/M06 A299 RMK A01 T01051060  RH  031%=      5-min Rain = 0
KGGS 080802Z 35004KT 10/M06 A299 RMK A01 T01021058  RH  032%=      5-min Rain = 0
KGGS 080803Z 35004KT 10/M06 A299 RMK A01 T01011058  RH  032%=      5-min Rain = 0
KGGS 080804Z 35004KT 10/M06 A299 RMK A01 T01041057  RH  032%=      5-min Rain = 0
KGGS 080805Z 35004KT 10/M06 A299 RMK A01 T01041057  RH  032%=      5-min Rain = 0
KGGS 080806Z 00004KT 10/M06 A299 RMK A01 T01041057  RH  032%=      5-min Rain = 0
KGGS 080807Z 01004KT 11/M06 A299 RMK A01 T01051057  RH  032%=      5-min Rain = 0
KGGS 080808Z 02004KT 11/M06 A299 RMK A01 T01051057  RH  031%=      5-min Rain = 0
KGGS 080809Z 01004KT 11/M06 A299 RMK A01 T01071057  RH  031%=      5-min Rain = 0
KGGS 080810Z 01005KT 11/M06 A299 RMK A01 T01071058  RH  031%=      5-min Rain = 0
KGGS 080811Z 00005KT 11/M06 A2989 RMK A01 T01071058  RH  031%=      5-min Rain = 0
KGGS 080812Z 35004KT 10/M06 A2989 RMK A01 T01031058  RH  032%=      5-min Rain = 0
KGGS 080813Z 33005KT 10/M06 A299 RMK A01 T01001058  RH  032%=      5-min Rain = 0
KGGS 080814Z 32005KT 10/M06 A299 RMK A01 T00961058  RH  033%=      5-min Rain = 0
KGGS 080815Z 32005KT 09/M06 A299 RMK A01 T00921058  RH  034%=      5-min Rain = 0
KGGS 080816Z 32005KT 09/M06 A299 RMK A01 T00871058  RH  035%=      5-min Rain = 0
KGGS 080817Z 33004KT 09/M06 A299 RMK A01 T00851057  RH  036%=      5-min Rain = 0
KGGS 080818Z 34004KT 08/M06 A299 RMK A01 T00841056  RH  037%=      5-min Rain = 0
KGGS 080819Z 35003KT 08/M06 A2989 RMK A01 T00841057  RH  037%=      5-min Rain = 0
KGGS 080820Z 00003KT 09/M06 A299 RMK A01 T00861057  RH  036%=      5-min Rain = 0
KGGS 080821Z 01003KT 09/M06 A299 RMK A01 T00891057  RH  035%=      5-min Rain = 0
KGGS 080822Z 02003KT 09/M06 A2989 RMK A01 T00921057  RH  034%=      5-min Rain = 0
KGGS 080823Z 02003KT 10/M06 A2989 RMK A01 T00961057  RH  033%=      5-min Rain = 0
KGGS 080824Z 02004KT 10/M06 A2989 RMK A01 T00991057  RH  033%=      5-min Rain = 0
KGGS 080825Z 02004KT 10/M06 A2989 RMK A01 T01011058  RH  032%=      5-min Rain = 0
KGGS 080826Z 02004KT 10/M06 A2989 RMK A01 T01011058  RH  032%=      5-min Rain = 0
KGGS 080827Z 02004KT 10/M06 A2989 RMK A01 T01001059  RH  032%=      5-min Rain = 0
KGGS 080828Z 01004KT 10/M06 A2989 RMK A01 T00981059  RH  032%=      5-min Rain = 0
KGGS 080829Z 01004KT 10/M06 A2989 RMK A01 T00981059  RH  033%=      5-min Rain = 0
KGGS 080830Z 00004KT 10/M06 A2989 RMK A01 T00991059  RH  032%=      5-min Rain = 0
KGGS 080831Z 36004KT 10/M06 A299 RMK A01 T01001059  RH  032%=      5-min Rain = 0
KGGS 080832Z 35003KT 10/M06 A299 RMK A01 T01001059  RH  032%=      5-min Rain = 0
KGGS 080833Z 34002KT 10/M06 A299 RMK A01 T00971059  RH  033%=      5-min Rain = 0
KGGS 080834Z 35003KT 10/M06 A299 RMK A01 T00971059  RH  033%=      5-min Rain = 0
KGGS 080835Z 35002KT 10/M06 A299 RMK A01 T00971059  RH  033%=      5-min Rain = 0
KGGS 080836Z 35002KT 10/M06 A2989 RMK A01 T00971059  RH  033%=      5-min Rain = 0
KGGS 080837Z 00002KT 10/M06 A2989 RMK A01 T00981059  RH  033%=      5-min Rain = 0
KGGS 080838Z 01002KT 10/M06 A2989 RMK A01 T01001059  RH  032%=      5-min Rain = 0
KGGS 080839Z 02002KT 10/M06 A2989 RMK A01 T01011059  RH  032%=      5-min Rain = 0
KGGS 080840Z 02002KT 10/M06 A2989 RMK A01 T01021059  RH  032%=      5-min Rain = 0
KGGS 080841Z 03003KT 10/M06 A2989 RMK A01 T01031059  RH  031%=      5-min Rain = 0
KGGS 080842Z 03003KT 10/M06 A2989 RMK A01 T01031059  RH  031%=      5-min Rain = 0
KGGS 080843Z 03003KT 10/M06 A2989 RMK A01 T01021059  RH  032%=      5-min Rain = 0
KGGS 080844Z 04003KT 10/M06 A2989 RMK A01 T01001059  RH  032%=      5-min Rain = 0
KGGS 080845Z 04003KT 10/M06 A2989 RMK A01 T00981059  RH  032%=      5-min Rain = 0
KGGS 080846Z 02003KT 10/M06 A2989 RMK A01 T00951060  RH  033%=      5-min Rain = 0
KGGS 080847Z 02003KT 09/M06 A2989 RMK A01 T00931060  RH  033%=      5-min Rain = 0
KGGS 080848Z 02003KT 09/M06 A2989 RMK A01 T00911060  RH  034%=      5-min Rain = 0
KGGS 080849Z 01002KT 09/M06 A2989 RMK A01 T00911060  RH  034%=      5-min Rain = 0
KGGS 080850Z 00002KT 09/M06 A2989 RMK A01 T00921059  RH  034%=      5-min Rain = 0
KGGS 080851Z 35002KT 09/M06 A2989 RMK A01 T00941059  RH  033%=      5-min Rain = 0
KGGS 080852Z 35002KT 09/M06 A2989 RMK A01 T00941059  RH  033%=      5-min Rain = 0
KGGS 080853Z 01003KT 10/M06 A2989 RMK A01 T00951059  RH  033%=      5-min Rain = 0
KGGS 080854Z 01002KT 10/M06 A2989 RMK A01 T00971059  RH  033%=      5-min Rain = 0
KGGS 080855Z 01003KT 10/M06 A2989 RMK A01 T00981059  RH  033%=      5-min Rain = 0
KGGS 080856Z 00003KT 10/M06 A2989 RMK A01 T00991059  RH  032%=      5-min Rain = 0
KGGS 080857Z 01003KT 10/M06 A2989 RMK A01 T01001059  RH  032%=      5-min Rain = 0
KGGS 080858Z 01003KT 10/M06 A2989 RMK A01 T01011059  RH  032%=      5-min Rain = 0
KGGS 080859Z 01004KT 10/M06 A2989 RMK A01 T01021059  RH  032%=      5-min Rain = 0
KGGS 080900Z 01004KT 10/M06 A2989 RMK A01 T01021060  RH  032%=      5-min Rain = 0
KGGS 080901Z 01004KT 10/M06 A2989 RMK A01 T01021060  RH  031%=      5-min Rain = 0
KGGS 080902Z 01004KT 10/M06 A2989 RMK A01 T01031060  RH  031%=      5-min Rain = 0
KGGS 080903Z 01004KT 10/M06 A2989 RMK A01 T01031060  RH  031%=      5-min Rain = 0
KGGS 080904Z 01004KT 10/M06 A2989 RMK A01 T01031060  RH  031%=      5-min Rain = 0
KGGS 080905Z 01004KT 10/M06 A2989 RMK A01 T01021060  RH  031%=      5-min Rain = 0
KGGS 080906Z 36004KT 10/M06 A2989 RMK A01 T01021060  RH  031%=      5-min Rain = 0
KGGS 080907Z 34004KT 10/M06 A2989 RMK A01 T01021060  RH  032%=      5-min Rain = 0
KGGS 080908Z 33003KT 10/M06 A2989 RMK A01 T00991060  RH  032%=      5-min Rain = 0
KGGS 080909Z 32003KT 10/M06 A2989 RMK A01 T00961061  RH  033%=      5-min Rain = 0
KGGS 080910Z 34003KT 09/M06 A2989 RMK A01 T00931061  RH  033%=      5-min Rain = 0
KGGS 080911Z 35003KT 09/M06 A2988 RMK A01 T00931060  RH  034%=      5-min Rain = 0
KGGS 080912Z 01003KT 09/M06 A2988 RMK A01 T00941059  RH  033%=      5-min Rain = 0
KGGS 080913Z 36004KT 10/M06 A2988 RMK A01 T00951059  RH  033%=      5-min Rain = 0
KGGS 080914Z 00004KT 10/M06 A2988 RMK A01 T00971059  RH  033%=      5-min Rain = 0
KGGS 080915Z 00004KT 10/M06 A2988 RMK A01 T00981059  RH  032%=      5-min Rain = 0
KGGS 080916Z 00004KT 10/M06 A2988 RMK A01 T00991059  RH  032%=      5-min Rain = 0
KGGS 080917Z 00004KT 10/M06 A2988 RMK A01 T00991059  RH  032%=      5-min Rain = 0
KGGS 080918Z 00004KT 10/M06 A2988 RMK A01 T00991059  RH  032%=      5-min Rain = 0
KGGS 080919Z 00003KT 10/M06 A2988 RMK A01 T00981060  RH  032%=      5-min Rain = 0
KGGS 080920Z 00003KT 10/M06 A2988 RMK A01 T00981060  RH  032%=      5-min Rain = 0
KGGS 080921Z 00003KT 10/M06 A2988 RMK A01 T00981060  RH  032%=      5-min Rain = 0
KGGS 080922Z 00003KT 10/M06 A2988 RMK A01 T00981059  RH  032%=      5-min Rain = 0
KGGS 080923Z 00003KT 10/M06 A2988 RMK A01 T00981060  RH  032%=      5-min Rain = 0
KGGS 080924Z 01003KT 10/M06 A2988 RMK A01 T00981060  RH  032%=      5-min Rain = 0
KGGS 080925Z 35003KT 10/M06 A2988 RMK A01 T00981060  RH  032%=      5-min Rain = 0
KGGS 080926Z 36003KT 10/M06 A2988 RMK A01 T00971059  RH  033%=      5-min Rain = 0
KGGS 080927Z 35003KT 10/M06 A2988 RMK A01 T00971059  RH  033%=      5-min Rain = 0
KGGS 080928Z 35003KT 10/M06 A2988 RMK A01 T00971059  RH  033%=      5-min Rain = 0
KGGS 080929Z 35003KT 10/M06 A2988 RMK A01 T00971059  RH  033%=      5-min Rain = 0
KGGS 080930Z 35003KT 10/M06 A2988 RMK A01 T00971059  RH  033%=      5-min Rain = 0
KGGS 080931Z 35003KT 10/M06 A2988 RMK A01 T00971059  RH  033%=      5-min Rain = 0
KGGS 080932Z 35003KT 09/M06 A2988 RMK A01 T00931060  RH  033%=      5-min Rain = 0
KGGS 080933Z 35003KT 09/M06 A2988 RMK A01 T00901060  RH  034%=      5-min Rain = 0
KGGS 080934Z 34003KT 09/M06 A2988 RMK A01 T00881060  RH  035%=      5-min Rain = 0
KGGS 080935Z 35004KT 09/M06 A2988 RMK A01 T00871060  RH  035%=      5-min Rain = 0
KGGS 080936Z 35003KT 09/M06 A2988 RMK A01 T00871059  RH  035%=      5-min Rain = 0
KGGS 080937Z 35003KT 09/M06 A2988 RMK A01 T00861059  RH  035%=      5-min Rain = 0
KGGS 080938Z 35003KT 09/M06 A2988 RMK A01 T00851059  RH  036%=      5-min Rain = 0
KGGS 080939Z 00003KT 08/M06 A2988 RMK A01 T00841059  RH  036%=      5-min Rain = 0
KGGS 080940Z 00003KT 08/M06 A2988 RMK A01 T00841058  RH  036%=      5-min Rain = 0
KGGS 080941Z 00003KT 08/M06 A2988 RMK A01 T00831059  RH  036%=      5-min Rain = 0
KGGS 080942Z 35003KT 08/M06 A2988 RMK A01 T00831059  RH  036%=      5-min Rain = 0
KGGS 080943Z 34003KT 08/M06 A2988 RMK A01 T00821059  RH  036%=      5-min Rain = 0
KGGS 080944Z 33003KT 08/M06 A2988 RMK A01 T00821058  RH  036%=      5-min Rain = 0
KGGS 080945Z 33003KT 08/M06 A2988 RMK A01 T00831058  RH  036%=      5-min Rain = 0
KGGS 080946Z 33004KT 08/M06 A2988 RMK A01 T00831058  RH  036%=      5-min Rain = 0
KGGS 080947Z 33004KT 08/M06 A2988 RMK A01 T00841057  RH  036%=      5-min Rain = 0
KGGS 080948Z 32003KT 09/M06 A2988 RMK A01 T00851057  RH  036%=      5-min Rain = 0
KGGS 080949Z 32004KT 09/M06 A2988 RMK A01 T00851057  RH  036%=      5-min Rain = 0
KGGS 080950Z 33004KT 08/M06 A2988 RMK A01 T00841058  RH  036%=      5-min Rain = 0
KGGS 080951Z 34004KT 08/M06 A2988 RMK A01 T00831058  RH  036%=      5-min Rain = 0
KGGS 080952Z 35003KT 09/M06 A2988 RMK A01 T00851057  RH  036%=      5-min Rain = 0
KGGS 080953Z 35003KT 09/M06 A2987 RMK A01 T00861057  RH  036%=      5-min Rain = 0
KGGS 080954Z 35003KT 09/M06 A2987 RMK A01 T00861057  RH  036%=      5-min Rain = 0
KGGS 080955Z 35004KT 09/M06 A2987 RMK A01 T00851057  RH  036%=      5-min Rain = 0
KGGS 080956Z 35003KT 09/M06 A2987 RMK A01 T00851057  RH  036%=      5-min Rain = 0
KGGS 080957Z 35003KT 09/M06 A2987 RMK A01 T00851057  RH  036%=      5-min Rain = 0
KGGS 080958Z 34004KT 09/M06 A2987 RMK A01 T00861057  RH  036%=      5-min Rain = 0
KGGS 080959Z 35004KT 09/M06 A2987 RMK A01 T00861057  RH  036%=      5-min Rain = 0
KGGS 081000Z 35004KT 09/M06 A2987 RMK A01 T00871057  RH  036%=      5-min Rain = 0
KGGS 081001Z 35004KT 09/M06 A2987 RMK A01 T00881057  RH  035%=      5-min Rain = 0
KGGS 081002Z 35004KT 09/M06 A2987 RMK A01 T00891057  RH  035%=      5-min Rain = 0
KGGS 081003Z 34004KT 09/M06 A2987 RMK A01 T00901057  RH  035%=      5-min Rain = 0
KGGS 081004Z 33004KT 09/M06 A2987 RMK A01 T00881057  RH  035%=      5-min Rain = 0
KGGS 081005Z 33005KT 09/M06 A2987 RMK A01 T00861057  RH  036%=      5-min Rain = 0
KGGS 081006Z 33005KT 08/M06 A2987 RMK A01 T00821058  RH  037%=      5-min Rain = 0
KGGS 081007Z 33005KT 08/M06 A2987 RMK A01 T00791057  RH  037%=      5-min Rain = 0
KGGS 081008Z 33006KT 08/M06 A2987 RMK A01 T00771057  RH  038%=      5-min Rain = 0
KGGS 081009Z 33005KT 08/M06 A2987 RMK A01 T00771056  RH  038%=      5-min Rain = 0
KGGS 081010Z 33005KT 08/M06 A2987 RMK A01 T00761056  RH  039%=      5-min Rain = 0
KGGS 081011Z 34004KT 08/M06 A2987 RMK A01 T00771056  RH  039%=      5-min Rain = 0
KGGS 081012Z 34004KT 08/M06 A2987 RMK A01 T00781056  RH  038%=      5-min Rain = 0
KGGS 081013Z 34004KT 08/M06 A2987 RMK A01 T00781056  RH  038%=      5-min Rain = 0
KGGS 081014Z 34004KT 08/M06 A2987 RMK A01 T00781056  RH  038%=      5-min Rain = 0
KGGS 081015Z 34004KT 08/M06 A2987 RMK A01 T00781056  RH  038%=      5-min Rain = 0
KGGS 081016Z 33004KT 08/M06 A2987 RMK A01 T00781056  RH  038%=      5-min Rain = 0
KGGS 081017Z 34004KT 08/M06 A2987 RMK A01 T00791056  RH  038%=      5-min Rain = 0
KGGS 081018Z 34005KT 08/M06 A2987 RMK A01 T00781056  RH  038%=      5-min Rain = 0
KGGS 081019Z 35005KT 08/M06 A2987 RMK A01 T00781056  RH  038%=      5-min Rain = 0
KGGS 081020Z 34006KT 08/M06 A2987 RMK A01 T00791056  RH  038%=      5-min Rain = 0
KGGS 081021Z 34006KT 08/M06 A2987 RMK A01 T00781056  RH  038%=      5-min Rain = 0
KGGS 081022Z 33006KT 08/M06 A2987 RMK A01 T00751056  RH  039%=      5-min Rain = 0
KGGS 081023Z 33006KT 07/M06 A2987 RMK A01 T00731056  RH  039%=      5-min Rain = 0
KGGS 081024Z 32005KT 07/M06 A2987 RMK A01 T00711055  RH  040%=      5-min Rain = 0
KGGS 081025Z 32005KT 07/M06 A2987 RMK A01 T00681056  RH  041%=      5-min Rain = 0
KGGS 081026Z 33005KT 07/M06 A2987 RMK A01 T00661055  RH  041%=      5-min Rain = 0
KGGS 081027Z 33005KT 07/M06 A2986 RMK A01 T00661055  RH  042%=      5-min Rain = 0
KGGS 081028Z 34005KT 07/M05 A2986 RMK A01 T00671054  RH  042%=      5-min Rain = 0
KGGS 081029Z 33005KT 07/M05 A2986 RMK A01 T00681054  RH  042%=      5-min Rain = 0
KGGS 081030Z 33005KT 07/M05 A2986 RMK A01 T00681054  RH  041%=      5-min Rain = 0
KGGS 081031Z 33005KT 07/M05 A2986 RMK A01 T00701054  RH  041%=      5-min Rain = 0
KGGS 081032Z 33006KT 07/M05 A2986 RMK A01 T00711054  RH  041%=      5-min Rain = 0
KGGS 081033Z 32006KT 07/M05 A2986 RMK A01 T00711054  RH  041%=      5-min Rain = 0
KGGS 081034Z 32006KT 07/M05 A2986 RMK A01 T00701054  RH  041%=      5-min Rain = 0
KGGS 081035Z 32006KT 07/M05 A2986 RMK A01 T00701054  RH  041%=      5-min Rain = 0
KGGS 081036Z 32007KT 07/M05 A2986 RMK A01 T00701053  RH  041%=      5-min Rain = 0
KGGS 081037Z 32007KT 07/M05 A2986 RMK A01 T00701053  RH  041%=      5-min Rain = 0
KGGS 081038Z 32007KT 07/M05 A2986 RMK A01 T00691053  RH  041%=      5-min Rain = 0
KGGS 081039Z 32007KT 07/M05 A2986 RMK A01 T00701052  RH  042%=      5-min Rain = 0
KGGS 081040Z 32007KT 07/M05 A2986 RMK A01 T00701052  RH  042%=      5-min Rain = 0
KGGS 081041Z 32007KT 07/M05 A2986 RMK A01 T00701052  RH  042%=      5-min Rain = 0
KGGS 081042Z 32007KT 07/M05 A2986 RMK A01 T00701052  RH  042%=      5-min Rain = 0
KGGS 081043Z 32007KT 07/M05 A2986 RMK A01 T00701051  RH  042%=      5-min Rain = 0
KGGS 081044Z 32007KT 07/M05 A2986 RMK A01 T00701051  RH  042%=      5-min Rain = 0
KGGS 081045Z 32007KT 07/M05 A2986 RMK A01 T00701051  RH  042%=      5-min Rain = 0
KGGS 081046Z 32007KT 07/M05 A2986 RMK A01 T00681050  RH  042%=      5-min Rain = 0
KGGS 081047Z 33007KT 07/M05 A2986 RMK A01 T00681050  RH  043%=      5-min Rain = 0
KGGS 081048Z 33007KT 07/M05 A2986 RMK A01 T00671049  RH  043%=      5-min Rain = 0
KGGS 081049Z 33007KT 07/M05 A2986 RMK A01 T00671049  RH  043%=      5-min Rain = 0
KGGS 081050Z 33007KT 07/M05 A2986 RMK A01 T00671049  RH  043%=      5-min Rain = 0
KGGS 081051Z 33007KT 07/M05 A2986 RMK A01 T00661049  RH  044%=      5-min Rain = 0
KGGS 081052Z 34006KT 07/M05 A2986 RMK A01 T00651049  RH  044%=      5-min Rain = 0
KGGS 081053Z 34006KT 07/M05 A2986 RMK A01 T00651049  RH  044%=      5-min Rain = 0
KGGS 081054Z 34005KT 07/M05 A2986 RMK A01 T00651049  RH  044%=      5-min Rain = 0
KGGS 081055Z 34005KT 07/M05 A2986 RMK A01 T00651048  RH  044%=      5-min Rain = 0
KGGS 081056Z 34005KT 07/M05 A2986 RMK A01 T00651049  RH  044%=      5-min Rain = 0
KGGS 081057Z 34005KT 07/M05 A2986 RMK A01 T00651049  RH  044%=      5-min Rain = 0
KGGS 081058Z 33005KT 07/M05 A2986 RMK A01 T00651049  RH  044%=      5-min Rain = 0
KGGS 081059Z 33005KT 06/M05 A2986 RMK A01 T00641049  RH  044%=      5-min Rain = 0
KGGS 081100Z 33005KT 06/M05 A2986 RMK A01 T00641048  RH  044%=      5-min Rain = 0
KGGS 081101Z 32005KT 06/M05 A2986 RMK A01 T00641048  RH  045%=      5-min Rain = 0
KGGS 081102Z 32003KT 07/M05 A2986 RMK A01 T00651048  RH  044%=      5-min Rain = 0
KGGS 081103Z 32003KT 07/M05 A2986 RMK A01 T00661048  RH  044%=      5-min Rain = 0
KGGS 081104Z 32003KT 07/M05 A2986 RMK A01 T00661048  RH  044%=      5-min Rain = 0
KGGS 081105Z 32004KT 07/M05 A2986 RMK A01 T00661048  RH  044%=      5-min Rain = 0
KGGS 081106Z 32004KT 07/M05 A2987 RMK A01 T00671048  RH  044%=      5-min Rain = 0
KGGS 081107Z 32004KT 07/M05 A2987 RMK A01 T00681048  RH  044%=      5-min Rain = 0
KGGS 081108Z 32004KT 07/M05 A2987 RMK A01 T00691047  RH  043%=      5-min Rain = 0
KGGS 081109Z 32004KT 07/M05 A2987 RMK A01 T00691048  RH  043%=      5-min Rain = 0
KGGS 081110Z 32004KT 07/M05 A2986 RMK A01 T00691048  RH  043%=      5-min Rain = 0
KGGS 081111Z 32004KT 07/M05 A2986 RMK A01 T00701047  RH  043%=      5-min Rain = 0
KGGS 081112Z 32004KT 07/M05 A2986 RMK A01 T00721047  RH  042%=      5-min Rain = 0
KGGS 081113Z 32004KT 07/M05 A2986 RMK A01 T00741047  RH  042%=      5-min Rain = 0
KGGS 081114Z 32004KT 07/M05 A2986 RMK A01 T00741048  RH  042%=      5-min Rain = 0
KGGS 081115Z 32004KT 07/M05 A2986 RMK A01 T00721048  RH  042%=      5-min Rain = 0
KGGS 081116Z 33005KT 07/M05 A2986 RMK A01 T00721047  RH  042%=      5-min Rain = 0
KGGS 081117Z 33006KT 07/M05 A2986 RMK A01 T00741047  RH  042%=      5-min Rain = 0
KGGS 081118Z 33006KT 07/M05 A2986 RMK A01 T00741047  RH  042%=      5-min Rain = 0
KGGS 081119Z 32005KT 07/M05 A2986 RMK A01 T00731047  RH  042%=      5-min Rain = 0
KGGS 081120Z 32005KT 07/M05 A2986 RMK A01 T00731048  RH  042%=      5-min Rain = 0
KGGS 081121Z 32005KT 07/M05 A2986 RMK A01 T00721048  RH  042%=      5-min Rain = 0
KGGS 081122Z 32005KT 07/M05 A2986 RMK A01 T00711048  RH  042%=      5-min Rain = 0
KGGS 081123Z 32006KT 07/M05 A2986 RMK A01 T00711047  RH  043%=      5-min Rain = 0
KGGS 081124Z 32005KT 07/M05 A2986 RMK A01 T00701047  RH  043%=      5-min Rain = 0
KGGS 081125Z 33004KT 07/M05 A2986 RMK A01 T00701047  RH  043%=      5-min Rain = 0
KGGS 081126Z 32004KT 07/M05 A2986 RMK A01 T00711047  RH  043%=      5-min Rain = 0
KGGS 081127Z 32004KT 07/M05 A2986 RMK A01 T00711047  RH  043%=      5-min Rain = 0
KGGS 081128Z 32004KT 07/M05 A2986 RMK A01 T00711047  RH  043%=      5-min Rain = 0
KGGS 081129Z 32004KT 07/M05 A2986 RMK A01 T00711047  RH  043%=      5-min Rain = 0
KGGS 081130Z 31005KT 07/M05 A2986 RMK A01 T00691048  RH  043%=      5-min Rain = 0
KGGS 081131Z 31006KT 07/M05 A2986 RMK A01 T00661049  RH  044%=      5-min Rain = 0
KGGS 081132Z 31006KT 07/M05 A2986 RMK A01 T00661047  RH  044%=      5-min Rain = 0
KGGS 081133Z 32005KT 07/M05 A2986 RMK A01 T00671046  RH  044%=      5-min Rain = 0
KGGS 081134Z 31005KT 07/M05 A2986 RMK A01 T00681046  RH  044%=      5-min Rain = 0
KGGS 081135Z 32004KT 07/M05 A2986 RMK A01 T00681046  RH  044%=      5-min Rain = 0
KGGS 081136Z 32005KT 07/M05 A2986 RMK A01 T00691045  RH  044%=      5-min Rain = 0
KGGS 081137Z 31005KT 07/M05 A2986 RMK A01 T00711045  RH  044%=      5-min Rain = 0
KGGS 081138Z 31006KT 07/M05 A2986 RMK A01 T00711045  RH  043%=      5-min Rain = 0
KGGS 081139Z 31006KT 07/M05 A2986 RMK A01 T00711045  RH  043%=      5-min Rain = 0
KGGS 081140Z 31006KT 07/M05 A2986 RMK A01 T00711045  RH  043%=      5-min Rain = 0
KGGS 081141Z 31005KT 07/M05 A2986 RMK A01 T00691045  RH  044%=      5-min Rain = 0
KGGS 081142Z 32004KT 07/M05 A2986 RMK A01 T00691045  RH  044%=      5-min Rain = 0
KGGS 081143Z 32004KT 07/M05 A2986 RMK A01 T00691045  RH  044%=      5-min Rain = 0
KGGS 081144Z 32005KT 07/M05 A2986 RMK A01 T00691045  RH  044%=      5-min Rain = 0
KGGS 081145Z 31005KT 07/M05 A2986 RMK A01 T00681045  RH  044%=      5-min Rain = 0
KGGS 081146Z 32005KT 07/M05 A2986 RMK A01 T00671045  RH  045%=      5-min Rain = 0
KGGS 081147Z 32006KT 07/M04 A2986 RMK A01 T00661044  RH  045%=      5-min Rain = 0
KGGS 081148Z 32006KT 07/M04 A2987 RMK A01 T00671044  RH  045%=      5-min Rain = 0
KGGS 081149Z 32005KT 07/M04 A2986 RMK A01 T00671044  RH  045%=      5-min Rain = 0
KGGS 081150Z 33005KT 07/M04 A2986 RMK A01 T00671044  RH  045%=      5-min Rain = 0
KGGS 081151Z 33004KT 07/M04 A2986 RMK A01 T00671044  RH  045%=      5-min Rain = 0
KGGS 081152Z 33005KT 07/M04 A2986 RMK A01 T00661044  RH  045%=      5-min Rain = 0
KGGS 081153Z 33005KT 07/M04 A2987 RMK A01 T00661044  RH  045%=      5-min Rain = 0
KGGS 081154Z 33005KT 07/M04 A2987 RMK A01 T00661044  RH  045%=      5-min Rain = 0
KGGS 081155Z 33006KT 07/M05 A2987 RMK A01 T00651045  RH  045%=      5-min Rain = 0
KGGS 081156Z 33004KT 06/M05 A2987 RMK A01 T00631045  RH  046%=      5-min Rain = 0
KGGS 081157Z 33003KT 06/M05 A2987 RMK A01 T00611045  RH  046%=      5-min Rain = 0
KGGS 081158Z 33003KT 06/M05 A2987 RMK A01 T00601045  RH  047%=      5-min Rain = 0
KGGS 081159Z 32003KT 06/M05 A2986 RMK A01 T00591045  RH  047%=      5-min Rain = 0
KGGS 081200Z 31003KT 06/M04 A2986 RMK A01 T00591044  RH  047%=      5-min Rain = 0
KGGS 081201Z 32003KT 06/M04 A2987 RMK A01 T00601044  RH  047%=      5-min Rain = 0
KGGS 081202Z 32003KT 06/M04 A2987 RMK A01 T00611044  RH  047%=      5-min Rain = 0
KGGS 081203Z 32003KT 06/M04 A2987 RMK A01 T00621044  RH  047%=      5-min Rain = 0
KGGS 081204Z 32003KT 06/M04 A2987 RMK A01 T00631043  RH  047%=      5-min Rain = 0
KGGS 081205Z 32003KT 06/M04 A2987 RMK A01 T00641043  RH  046%=      5-min Rain = 0
KGGS 081206Z 33004KT 07/M04 A2987 RMK A01 T00651043  RH  046%=      5-min Rain = 0
KGGS 081207Z 32004KT 07/M04 A2987 RMK A01 T00671041  RH  046%=      5-min Rain = 0
KGGS 081208Z 34003KT 07/M04 A2987 RMK A01 T00711041  RH  045%=      5-min Rain = 0
KGGS 081209Z 34002KT 07/M04 A2987 RMK A01 T00731041  RH  044%=      5-min Rain = 0
KGGS 081210Z 34003KT 07/M04 A2987 RMK A01 T00731042  RH  044%=      5-min Rain = 0
KGGS 081211Z 35002KT 08/M04 A2987 RMK A01 T00761039  RH  044%=      5-min Rain = 0
KGGS 081212Z 35002KT 08/M04 A2987 RMK A01 T00791039  RH  043%=      5-min Rain = 0
KGGS 081213Z 33002KT 08/M04 A2987 RMK A01 T00801041  RH  042%=      5-min Rain = 0
KGGS 081214Z 34003KT 08/M04 A2987 RMK A01 T00791041  RH  042%=      5-min Rain = 0
KGGS 081215Z 34003KT 08/M04 A2987 RMK A01 T00801040  RH  042%=      5-min Rain = 0
KGGS 081216Z 34003KT 08/M04 A2987 RMK A01 T00811040  RH  042%=      5-min Rain = 0
KGGS 081217Z 36003KT 08/M04 A2987 RMK A01 T00821040  RH  042%=      5-min Rain = 0
KGGS 081218Z 35002KT 08/M04 A2987 RMK A01 T00811041  RH  042%=      5-min Rain = 0
KGGS 081219Z 33002KT 08/M04 A2987 RMK A01 T00801041  RH  042%=      5-min Rain = 0
KGGS 081220Z 31003KT 08/M04 A2987 RMK A01 T00781042  RH  042%=      5-min Rain = 0
KGGS 081221Z 32004KT 08/M04 A2987 RMK A01 T00771041  RH  043%=      5-min Rain = 0
KGGS 081222Z 33004KT 08/M04 A2987 RMK A01 T00761041  RH  043%=      5-min Rain = 0
KGGS 081223Z 35003KT 08/M04 A2987 RMK A01 T00751041  RH  044%=      5-min Rain = 0
KGGS 081224Z 35003KT 07/M04 A2987 RMK A01 T00731041  RH  044%=      5-min Rain = 0
KGGS 081225Z 35004KT 07/M04 A2987 RMK A01 T00731041  RH  044%=      5-min Rain = 0
KGGS 081226Z 35004KT 07/M04 A2987 RMK A01 T00741040  RH  044%=      5-min Rain = 0
KGGS 081227Z 35005KT 08/M04 A2987 RMK A01 T00751040  RH  044%=      5-min Rain = 0
KGGS 081228Z 34004KT 08/M04 A2987 RMK A01 T00761040  RH  044%=      5-min Rain = 0
KGGS 081229Z 33004KT 08/M04 A2987 RMK A01 T00751041  RH  044%=      5-min Rain = 0
KGGS 081230Z 34004KT 07/M04 A2987 RMK A01 T00731041  RH  044%=      5-min Rain = 0
KGGS 081231Z 34004KT 07/M04 A2987 RMK A01 T00721041  RH  045%=      5-min Rain = 0
KGGS 081232Z 35004KT 07/M04 A2987 RMK A01 T00711041  RH  045%=      5-min Rain = 0
KGGS 081233Z 35004KT 07/M04 A2987 RMK A01 T00721040  RH  045%=      5-min Rain = 0
KGGS 081234Z 36004KT 07/M04 A2987 RMK A01 T00721040  RH  045%=      5-min Rain = 0
KGGS 081235Z 35004KT 07/M04 A2987 RMK A01 T00731040  RH  044%=      5-min Rain = 0
KGGS 081236Z 35004KT 07/M04 A2988 RMK A01 T00731040  RH  044%=      5-min Rain = 0
KGGS 081237Z 35003KT 07/M04 A2988 RMK A01 T00731041  RH  044%=      5-min Rain = 0
KGGS 081238Z 35004KT 07/M04 A2988 RMK A01 T00741040  RH  044%=      5-min Rain = 0
KGGS 081239Z 34003KT 07/M04 A2988 RMK A01 T00741040  RH  044%=      5-min Rain = 0
KGGS 081240Z 33004KT 07/M04 A2988 RMK A01 T00741040  RH  044%=      5-min Rain = 0
KGGS 081241Z 34004KT 07/M04 A2988 RMK A01 T00731040  RH  044%=      5-min Rain = 0
KGGS 081242Z 34004KT 07/M04 A2988 RMK A01 T00731040  RH  045%=      5-min Rain = 0
KGGS 081243Z 34003KT 07/M04 A2988 RMK A01 T00721040  RH  045%=      5-min Rain = 0
KGGS 081244Z 33004KT 07/M04 A2988 RMK A01 T00721039  RH  045%=      5-min Rain = 0
KGGS 081245Z 33003KT 07/M04 A2987 RMK A01 T00731039  RH  045%=      5-min Rain = 0
KGGS 081246Z 33003KT 07/M04 A2987 RMK A01 T00741038  RH  045%=      5-min Rain = 0
KGGS 081247Z 33003KT 07/M04 A2987 RMK A01 T00741038  RH  045%=      5-min Rain = 0
KGGS 081248Z 33003KT 07/M04 A2988 RMK A01 T00741038  RH  045%=      5-min Rain = 0
KGGS 081249Z 33003KT 07/M04 A2988 RMK A01 T00741038  RH  045%=      5-min Rain = 0
KGGS 081250Z 33003KT 08/M04 A2988 RMK A01 T00751037  RH  045%=      5-min Rain = 0
KGGS 081251Z 33003KT 08/M04 A2988 RMK A01 T00761037  RH  044%=      5-min Rain = 0
KGGS 081252Z 33003KT 08/M04 A2988 RMK A01 T00781037  RH  044%=      5-min Rain = 0
KGGS 081253Z 33003KT 08/M04 A2988 RMK A01 T00781037  RH  044%=      5-min Rain = 0
KGGS 081254Z 33002KT 08/M04 A2988 RMK A01 T00791036  RH  044%=      5-min Rain = 0
KGGS 081255Z 33002KT 08/M04 A2988 RMK A01 T00801036  RH  044%=      5-min Rain = 0
KGGS 081256Z 33002KT 08/M04 A2988 RMK A01 T00811036  RH  044%=      5-min Rain = 0
KGGS 081257Z 34003KT 08/M04 A2988 RMK A01 T00811036  RH  044%=      5-min Rain = 0
KGGS 081258Z 34003KT 08/M04 A2988 RMK A01 T00811036  RH  043%=      5-min Rain = 0
KGGS 081259Z 35003KT 08/M04 A2988 RMK A01 T00821036  RH  043%=      5-min Rain = 0
KGGS 081300Z 35003KT 08/M04 A2988 RMK A01 T00821036  RH  043%=      5-min Rain = 0
KGGS 081301Z 35003KT 08/M04 A2987 RMK A01 T00821036  RH  043%=      5-min Rain = 0
KGGS 081302Z 35003KT 08/M04 A2987 RMK A01 T00831036  RH  043%=      5-min Rain = 0
KGGS 081303Z 35002KT 08/M04 A2987 RMK A01 T00831035  RH  043%=      5-min Rain = 0
KGGS 081304Z 35002KT 08/M04 A2987 RMK A01 T00821035  RH  043%=      5-min Rain = 0
KGGS 081305Z 33002KT 08/M04 A2988 RMK A01 T00811036  RH  044%=      5-min Rain = 0
KGGS 081306Z 33002KT 08/M04 A2988 RMK A01 T00811035  RH  044%=      5-min Rain = 0
KGGS 081307Z 33002KT 08/M04 A2988 RMK A01 T00821035  RH  043%=      5-min Rain = 0
KGGS 081308Z 32002KT 08/M04 A2988 RMK A01 T00841035  RH  043%=      5-min Rain = 0
KGGS 081309Z 32002KT 09/M03 A2988 RMK A01 T00861034  RH  043%=      5-min Rain = 0
KGGS 081310Z 31002KT 09/M03 A2988 RMK A01 T00871034  RH  042%=      5-min Rain = 0
KGGS 081311Z 31003KT 09/M03 A2988 RMK A01 T00881034  RH  042%=      5-min Rain = 0
KGGS 081312Z 30004KT 09/M03 A2988 RMK A01 T00891034  RH  042%=      5-min Rain = 0
KGGS 081313Z 31004KT 09/M03 A2988 RMK A01 T00891033  RH  042%=      5-min Rain = 0
KGGS 081314Z 31004KT 09/M03 A2988 RMK A01 T00891032  RH  042%=      5-min Rain = 0
KGGS 081315Z 31004KT 09/M03 A2988 RMK A01 T00891032  RH  042%=      5-min Rain = 0
KGGS 081316Z 32005KT 09/M03 A2988 RMK A01 T00901032  RH  042%=      5-min Rain = 0
KGGS 081317Z 32005KT 09/M03 A2988 RMK A01 T00901031  RH  042%=      5-min Rain = 0
KGGS 081318Z 32004KT 09/M03 A2988 RMK A01 T00901031  RH  043%=      5-min Rain = 0
KGGS 081319Z 31004KT 09/M03 A2988 RMK A01 T00901030  RH  043%=      5-min Rain = 0
KGGS 081320Z 31004KT 09/M03 A2988 RMK A01 T00901029  RH  043%=      5-min Rain = 0
KGGS 081321Z 31003KT 09/M03 A2988 RMK A01 T00911027  RH  043%=      5-min Rain = 0
KGGS 081322Z 31003KT 09/M03 A2988 RMK A01 T00921026  RH  044%=      5-min Rain = 0
KGGS 081323Z 31004KT 09/M03 A2988 RMK A01 T00931026  RH  043%=      5-min Rain = 0
KGGS 081324Z 31004KT 10/M03 A2988 RMK A01 T00951027  RH  042%=      5-min Rain = 0
KGGS 081325Z 31004KT 10/M03 A2988 RMK A01 T00971027  RH  042%=      5-min Rain = 0
KGGS 081326Z 32003KT 10/M03 A2989 RMK A01 T00991026  RH  041%=      5-min Rain = 0
KGGS 081327Z 33003KT 10/M03 A2989 RMK A01 T01001025  RH  041%=      5-min Rain = 0
KGGS 081328Z 33003KT 10/M02 A2989 RMK A01 T01011024  RH  041%=      5-min Rain = 0
KGGS 081329Z 33003KT 10/M02 A2989 RMK A01 T01031024  RH  041%=      5-min Rain = 0
KGGS 081330Z 33003KT 10/M02 A2989 RMK A01 T01031024  RH  041%=      5-min Rain = 0
KGGS 081331Z 33003KT 10/M03 A2989 RMK A01 T01041025  RH  040%=      5-min Rain = 0
KGGS 081332Z 34002KT 11/M02 A2989 RMK A01 T01051024  RH  040%=      5-min Rain = 0
KGGS 081333Z 33002KT 11/M02 A2989 RMK A01 T01061024  RH  040%=      5-min Rain = 0
KGGS 081334Z 36002KT 11/M02 A2988 RMK A01 T01071024  RH  040%=      5-min Rain = 0
KGGS 081335Z 34002KT 11/M02 A2988 RMK A01 T01091022  RH  040%=      5-min Rain = 0
KGGS 081336Z 34002KT 11/M02 A2989 RMK A01 T01111023  RH  039%=      5-min Rain = 0
KGGS 081337Z 35002KT 11/M02 A2989 RMK A01 T01121023  RH  039%=      5-min Rain = 0
KGGS 081338Z 35002KT 11/M03 A2989 RMK A01 T01141027  RH  037%=      5-min Rain = 0
KGGS 081339Z 34002KT 11/M03 A2989 RMK A01 T01141027  RH  037%=      5-min Rain = 0
KGGS 081340Z 34001KT 11/M03 A2989 RMK A01 T01141027  RH  037%=      5-min Rain = 0
KGGS 081341Z 35001KT 12/M03 A2989 RMK A01 T01151028  RH  037%=      5-min Rain = 0
KGGS 081342Z 00001KT 12/M03 A2989 RMK A01 T01161026  RH  037%=      5-min Rain = 0
KGGS 081343Z 00002KT 12/M03 A2989 RMK A01 T01171027  RH  037%=      5-min Rain = 0
KGGS 081344Z 01002KT 12/M03 A2989 RMK A01 T01181026  RH  037%=      5-min Rain = 0
KGGS 081345Z 00002KT 12/M03 A2989 RMK A01 T01181027  RH  036%=      5-min Rain = 0
KGGS 081346Z 00002KT 12/M03 A2989 RMK A01 T01191025  RH  037%=      5-min Rain = 0
KGGS 081347Z 35003KT 12/M03 A2989 RMK A01 T01201025  RH  036%=      5-min Rain = 0
KGGS 081348Z 36003KT 12/M03 A2989 RMK A01 T01211026  RH  036%=      5-min Rain = 0
KGGS 081349Z 00003KT 12/M03 A2989 RMK A01 T01221025  RH  036%=      5-min Rain = 0
KGGS 081350Z 35003KT 12/M03 A2989 RMK A01 T01231026  RH  035%=      5-min Rain = 0
KGGS 081351Z 36004KT 12/M03 A2989 RMK A01 T01241027  RH  035%=      5-min Rain = 0
KGGS 081352Z 35004KT 13/M03 A2989 RMK A01 T01251027  RH  035%=      5-min Rain = 0
KGGS 081353Z 00004KT 13/M03 A2989 RMK A01 T01261026  RH  035%=      5-min Rain = 0
KGGS 081354Z 01004KT 13/M03 A2989 RMK A01 T01281027  RH  034%=      5-min Rain = 0
KGGS 081355Z 02003KT 13/M03 A2989 RMK A01 T01291029  RH  033%=      5-min Rain = 0
KGGS 081356Z 03003KT 13/M03 A2989 RMK A01 T01301029  RH  033%=      5-min Rain = 0
KGGS 081357Z 03003KT 13/M03 A2989 RMK A01 T01311029  RH  033%=      5-min Rain = 0
KGGS 081358Z 03003KT 13/M03 A2989 RMK A01 T01311030  RH  033%=      5-min Rain = 0
KGGS 081359Z 03003KT 13/M03 A2989 RMK A01 T01311028  RH  033%=      5-min Rain = 0
KGGS 081400Z 03003KT 13/M03 A2988 RMK A01 T01321028  RH  033%=      5-min Rain = 0
KGGS 081401Z 02002KT 13/M03 A2988 RMK A01 T01321028  RH  033%=      5-min Rain = 0
KGGS 081402Z 01004KT 13/M03 A2988 RMK A01 T01331027  RH  033%=      5-min Rain = 0
KGGS 081403Z 03005KT 13/M03 A2988 RMK A01 T01331029  RH  032%=      5-min Rain = 0
KGGS 081404Z 04005KT 13/M03 A2988 RMK A01 T01331029  RH  032%=      5-min Rain = 0
KGGS 081405Z 03005KT 13/M03 A2988 RMK A01 T01321030  RH  032%=      5-min Rain = 0
KGGS 081406Z 03003KT 13/M03 A2988 RMK A01 T01321029  RH  033%=      5-min Rain = 0
KGGS 081407Z 04002KT 13/M03 A2988 RMK A01 T01331028  RH  033%=      5-min Rain = 0
KGGS 081408Z 05003KT 13/M03 A2988 RMK A01 T01341027  RH  032%=      5-min Rain = 0
KGGS 081409Z 05005KT 14/M03 A2988 RMK A01 T01361028  RH  032%=      5-min Rain = 0
KGGS 081410Z 06005KT 14/M03 A2988 RMK A01 T01361029  RH  032%=      5-min Rain = 0
KGGS 081411Z 06004KT 14/M03 A2988 RMK A01 T01361029  RH  032%=      5-min Rain = 0
KGGS 081412Z 06004KT 14/M03 A2988 RMK A01 T01361027  RH  032%=      5-min Rain = 0
KGGS 081413Z 05003KT 14/M03 A2988 RMK A01 T01371028  RH  032%=      5-min Rain = 0
KGGS 081414Z 05004KT 14/M03 A2988 RMK A01 T01381027  RH  032%=      5-min Rain = 0
KGGS 081415Z 05005KT 14/M03 A2988 RMK A01 T01381027  RH  032%=      5-min Rain = 0
KGGS 081416Z 05005KT 14/M03 A2988 RMK A01 T01381028  RH  032%=      5-min Rain = 0
KGGS 081417Z 05004KT 14/M03 A2988 RMK A01 T01381028  RH  031%=      5-min Rain = 0
KGGS 081418Z 05004KT 14/M03 A2988 RMK A01 T01391027  RH  032%=      5-min Rain = 0
KGGS 081419Z 05004KT 14/M03 A2988 RMK A01 T01411028  RH  031%=      5-min Rain = 0
KGGS 081420Z 06004KT 14/M03 A2988 RMK A01 T01421029  RH  031%=      5-min Rain = 0
KGGS 081421Z 06003KT 14/M03 A2988 RMK A01 T01431029  RH  030%=      5-min Rain = 0
KGGS 081422Z 08005KT 14/M03 A2987 RMK A01 T01441029  RH  030%=      5-min Rain = 0
KGGS 081423Z 08004KT 14/M03 A2987 RMK A01 T01441030  RH  030%=      5-min Rain = 0
KGGS 081424Z 04004KT 14/M03 A2988 RMK A01 T01431029  RH  030%=      5-min Rain = 0
KGGS 081425Z 05004KT 14/M03 A2988 RMK A01 T01431030  RH  030%=      5-min Rain = 0
KGGS 081426Z 09004KT 14/M03 A2987 RMK A01 T01441030  RH  030%=      5-min Rain = 0
KGGS 081427Z 08003KT 15/M03 A2987 RMK A01 T01451032  RH  029%=      5-min Rain = 0
KGGS 081428Z 06003KT 15/M03 A2987 RMK A01 T01451031  RH  029%=      5-min Rain = 0
KGGS 081429Z 04002KT 15/M03 A2988 RMK A01 T01451032  RH  029%=      5-min Rain = 0
KGGS 081430Z 05003KT 15/M03 A2988 RMK A01 T01451031  RH  029%=      5-min Rain = 0
KGGS 081431Z 05002KT 15/M03 A2988 RMK A01 T01461032  RH  029%=      5-min Rain = 0
KGGS 081432Z 03003KT 15/M03 A2988 RMK A01 T01461031  RH  029%=      5-min Rain = 0
KGGS 081433Z 02004KT 15/M03 A2988 RMK A01 T01461031  RH  029%=      5-min Rain = 0
KGGS 081434Z 02004KT 15/M03 A2988 RMK A01 T01451032  RH  029%=      5-min Rain = 0
KGGS 081435Z 03003KT 15/M03 A2988 RMK A01 T01461029  RH  030%=      5-min Rain = 0
KGGS 081436Z 04003KT 15/M03 A2988 RMK A01 T01481032  RH  029%=      5-min Rain = 0
KGGS 081437Z 03002KT 15/M03 A2988 RMK A01 T01481032  RH  029%=      5-min Rain = 0
KGGS 081438Z 04003KT 15/M03 A2988 RMK A01 T01491030  RH  029%=      5-min Rain = 0
KGGS 081439Z 01003KT 15/M03 A2988 RMK A01 T01511030  RH  029%=      5-min Rain = 0
KGGS 081440Z 35003KT 15/M03 A2988 RMK A01 T01501030  RH  029%=      5-min Rain = 0
KGGS 081441Z 35003KT 15/M03 A2988 RMK A01 T01481030  RH  029%=      5-min Rain = 0
KGGS 081442Z 36004KT 15/M03 A2988 RMK A01 T01481029  RH  029%=      5-min Rain = 0
KGGS 081443Z 00004KT 15/M03 A2988 RMK A01 T01491031  RH  029%=      5-min Rain = 0
KGGS 081444Z 01004KT 15/M03 A2988 RMK A01 T01491029  RH  029%=      5-min Rain = 0
KGGS 081445Z 35004KT 15/M03 A2988 RMK A01 T01501030  RH  029%=      5-min Rain = 0
KGGS 081446Z 34003KT 15/M03 A2988 RMK A01 T01511030  RH  029%=      5-min Rain = 0
KGGS 081447Z 34005KT 15/M03 A2988 RMK A01 T01521030  RH  028%=      5-min Rain = 0
KGGS 081448Z 34002KT 15/M03 A2988 RMK A01 T01521031  RH  028%=      5-min Rain = 0
KGGS 081449Z 34003KT 15/M03 A2988 RMK A01 T01531032  RH  028%=      5-min Rain = 0
KGGS 081450Z 35003KT 15/M03 A2988 RMK A01 T01531031  RH  028%=      5-min Rain = 0
KGGS 081451Z 02004KT 15/M03 A2988 RMK A01 T01541031  RH  028%=      5-min Rain = 0
KGGS 081452Z 03005KT 15/M03 A2988 RMK A01 T01531030  RH  028%=      5-min Rain = 0
KGGS 081453Z 02006KT 15/M03 A2988 RMK A01 T01541032  RH  028%=      5-min Rain = 0
KGGS 081454Z 01007KT 15/M03 A2988 RMK A01 T01541030  RH  028%=      5-min Rain = 0
KGGS 081455Z 00007KT 16/M03 A2988 RMK A01 T01551031  RH  028%=      5-min Rain = 0
KGGS 081456Z 00005KT 15/M03 A2988 RMK A01 T01531032  RH  028%=      5-min Rain = 0
KGGS 081457Z 36007KT 15/M03 A2988 RMK A01 T01531031  RH  028%=      5-min Rain = 0
KGGS 081458Z 34005KT 15/M03 A2988 RMK A01 T01541033  RH  028%=      5-min Rain = 0
KGGS 081459Z 34003KT 16/M03 A2988 RMK A01 T01551033  RH  027%=      5-min Rain = 0
KGGS 081500Z 35005KT 16/M03 A2988 RMK A01 T01561031  RH  028%=      5-min Rain = 0
KGGS 081501Z 35006KT 16/M03 A2988 RMK A01 T01571030  RH  027%=      5-min Rain = 0
KGGS 081502Z 33008KT 16/M03 A2988 RMK A01 T01601025  RH  028%=      5-min Rain = 0
KGGS 081503Z 34007KT 16/M03 A2988 RMK A01 T01611026  RH  028%=      5-min Rain = 0
KGGS 081504Z 34008KT 16/M02 A2988 RMK A01 T01611024  RH  028%=      5-min Rain = 0
KGGS 081505Z 34008KT 16/M03 A2988 RMK A01 T01611026  RH  028%=      5-min Rain = 0
KGGS 081506Z 34009KT 16/M03 A2988 RMK A01 T01601026  RH  028%=      5-min Rain = 0
KGGS 081507Z 34007KT 16/M02 A2988 RMK A01 T01611024  RH  028%=      5-min Rain = 0
KGGS 081508Z 35008KT 16/M03 A2988 RMK A01 T01641025  RH  027%=      5-min Rain = 0
KGGS 081509Z 34008KT 16/M03 A2988 RMK A01 T01631028  RH  027%=      5-min Rain = 0
KGGS 081510Z 33006KT 16/M03 A2988 RMK A01 T01611029  RH  027%=      5-min Rain = 0
KGGS 081511Z 34005KT 16/M03 A2988 RMK A01 T01611026  RH  028%=      5-min Rain = 0
KGGS 081512Z 33006KT 16/M03 A2988 RMK A01 T01621028  RH  027%=      5-min Rain = 0
KGGS 081513Z 33008KT 16/M03 A2988 RMK A01 T01631028  RH  027%=      5-min Rain = 0
KGGS 081514Z 34007KT 16/M03 A2989 RMK A01 T01611029  RH  027%=      5-min Rain = 0
KGGS 081515Z 34006KT 16/M03 A2989 RMK A01 T01611029  RH  027%=      5-min Rain = 0
KGGS 081516Z 35006KT 16/M03 A2989 RMK A01 T01611030  RH  027%=      5-min Rain = 0
KGGS 081517Z 35008KT 16/M03 A2989 RMK A01 T01601028  RH  027%=      5-min Rain = 0
KGGS 081518Z 33007KT 16/M03 A2989 RMK A01 T01621027  RH  027%=      5-min Rain = 0
KGGS 081519Z 33006KT 16/M03 A2989 RMK A01 T01641030  RH  026%=      5-min Rain = 0
KGGS 081520Z 34005KT 16/M03 A2989 RMK A01 T01631030  RH  026%=      5-min Rain = 0
KGGS 081521Z 35004KT 16/M03 A2989 RMK A01 T01641029  RH  026%=      5-min Rain = 0
KGGS 081522Z 33007KT 17/M03 A2989 RMK A01 T01661028  RH  026%=      5-min Rain = 0
KGGS 081523Z 32006KT 17/M03 A2989 RMK A01 T01691030  RH  026%=      5-min Rain = 0
KGGS 081524Z 32004KT 17/M03 A2989 RMK A01 T01681030  RH  026%=      5-min Rain = 0
KGGS 081525Z 33007KT 17/M03 A2989 RMK A01 T01691029  RH  026%=      5-min Rain = 0
KGGS 081526Z 33007KT 17/M03 A2989 RMK A01 T01701031  RH  025%=      5-min Rain = 0
KGGS 081527Z 33006KT 17/M03 A2989 RMK A01 T01711032  RH  025%=      5-min Rain = 0
KGGS 081528Z 32006KT 17/M03 A2989 RMK A01 T01711032  RH  025%=      5-min Rain = 0
KGGS 081529Z 32007KT 17/M03 A2989 RMK A01 T01721031  RH  025%=      5-min Rain = 0
KGGS 081530Z 34006KT 17/M03 A2989 RMK A01 T01721031  RH  025%=      5-min Rain = 0
KGGS 081531Z 35007KT 17/M03 A2989 RMK A01 T01731030  RH  025%=      5-min Rain = 0
KGGS 081532Z 34005KT 17/M03 A2989 RMK A01 T01741033  RH  024%=      5-min Rain = 0
KGGS 081533Z 34007KT 17/M03 A2989 RMK A01 T01731031  RH  025%=      5-min Rain = 0
KGGS 081534Z 34006KT 17/M03 A2989 RMK A01 T01741030  RH  025%=      5-min Rain = 0
KGGS 081535Z 00006KT 17/M03 A2989 RMK A01 T01741030  RH  025%=      5-min Rain = 0
KGGS 081536Z 00006KT 17/M03 A2989 RMK A01 T01741031  RH  024%=      5-min Rain = 0
KGGS 081537Z 33006KT 17/M03 A2989 RMK A01 T01741032  RH  024%=      5-min Rain = 0
KGGS 081538Z 34007KT 18/M03 A2989 RMK A01 T01761034  RH  024%=      5-min Rain = 0
KGGS 081539Z 33006KT 18/M03 A2989 RMK A01 T01781032  RH  024%=      5-min Rain = 0
KGGS 081540Z 34006KT 18/M03 A2989 RMK A01 T01801033  RH  023%=      5-min Rain = 0
KGGS 081541Z 33005G10KT 18/M03 A2989 RMK A01 T01781033  RH  024%=      5-min Rain = 0
KGGS 081542Z 32008KT 18/M03 A2989 RMK A01 T01781031  RH  024%=      5-min Rain = 0
KGGS 081543Z 35005KT 18/M03 A2989 RMK A01 T01781029  RH  024%=      5-min Rain = 0
KGGS 081544Z 33007KT 18/M03 A2989 RMK A01 T01821026  RH  024%=      5-min Rain = 0
KGGS 081545Z 35009KT 19/M03 A2989 RMK A01 T01861031  RH  023%=      5-min Rain = 0
KGGS 081546Z 35007KT 19/M03 A2989 RMK A01 T01851032  RH  023%=      5-min Rain = 0
KGGS 081547Z 34006KT 18/M03 A2989 RMK A01 T01831029  RH  023%=      5-min Rain = 0
KGGS 081548Z 33008KT 19/M02 A2989 RMK A01 T01851024  RH  024%=      5-min Rain = 0
KGGS 081549Z 34008KT 19/M03 A2989 RMK A01 T01861025  RH  024%=      5-min Rain = 0
KGGS 081550Z 33005KT 19/M03 A2989 RMK A01 T01851025  RH  024%=      5-min Rain = 0
KGGS 081551Z 34006KT 18/M02 A2989 RMK A01 T01841024  RH  024%=      5-min Rain = 0
KGGS 081552Z 35008KT 18/M02 A2988 RMK A01 T01841023  RH  024%=      5-min Rain = 0
KGGS 081553Z 36007KT 18/M03 A2988 RMK A01 T01841025  RH  024%=      5-min Rain = 0
KGGS 081554Z 01006KT 18/M03 A2988 RMK A01 T01831027  RH  024%=      5-min Rain = 0
KGGS 081555Z 33005KT 18/M02 A2988 RMK A01 T01831024  RH  024%=      5-min Rain = 0
KGGS 081556Z 32005KT 19/M02 A2988 RMK A01 T01851023  RH  024%=      5-min Rain = 0
KGGS 081557Z 34006KT 19/M03 A2989 RMK A01 T01851025  RH  024%=      5-min Rain = 0
KGGS 081558Z 33009KT 19/M02 A2989 RMK A01 T01871024  RH  024%=      5-min Rain = 0
KGGS 081559Z 33009KT 19/M03 A2989 RMK A01 T01881030  RH  023%=      5-min Rain = 0
KGGS 081600Z 33007KT 19/M03 A2989 RMK A01 T01861030  RH  023%=      5-min Rain = 0
KGGS 081601Z 32004KT 19/M03 A2989 RMK A01 T01861030  RH  023%=      5-min Rain = 0
KGGS 081602Z 33003G8KT 18/M03 A2989 RMK A01 T01841029  RH  023%=      5-min Rain = 0
KGGS 081603Z 31006KT 19/M03 A2989 RMK A01 T01851026  RH  024%=      5-min Rain = 0
KGGS 081604Z 32003KT 19/M03 A2989 RMK A01 T01881025  RH  023%=      5-min Rain = 0
KGGS 081605Z 32008KT 19/M03 A2989 RMK A01 T01911025  RH  023%=      5-min Rain = 0
KGGS 081606Z 33009KT 19/M02 A2989 RMK A01 T01941023  RH  023%=      5-min Rain = 0
KGGS 081607Z 33007KT 20/M03 A2989 RMK A01 T01961026  RH  022%=      5-min Rain = 0
KGGS 081608Z 33007KT 20/M03 A2989 RMK A01 T01961027  RH  022%=      5-min Rain = 0
KGGS 081609Z 32006KT 20/M03 A2989 RMK A01 T01961027  RH  022%=      5-min Rain = 0
KGGS 081610Z 33005KT 19/M03 A2988 RMK A01 T01941025  RH  023%=      5-min Rain = 0
KGGS 081611Z 36007KT 19/M03 A2988 RMK A01 T01941029  RH  022%=      5-min Rain = 0
KGGS 081612Z 35007KT 19/M03 A2989 RMK A01 T01911027  RH  023%=      5-min Rain = 0
KGGS 081613Z 33006KT 19/M03 A2989 RMK A01 T01931025  RH  023%=      5-min Rain = 0
KGGS 081614Z 34005KT 19/M03 A2989 RMK A01 T01941027  RH  022%=      5-min Rain = 0
KGGS 081615Z 35003KT 19/M03 A2989 RMK A01 T01921028  RH  022%=      5-min Rain = 0
KGGS 081616Z 35007KT 19/M03 A2989 RMK A01 T01911025  RH  023%=      5-min Rain = 0
KGGS 081617Z 36007KT 19/M03 A2989 RMK A01 T01931027  RH  022%=      5-min Rain = 0
KGGS 081618Z 31008KT 19/M03 A2989 RMK A01 T01931027  RH  022%=      5-min Rain = 0
KGGS 081619Z 31007KT 20/M03 A2989 RMK A01 T01951029  RH  022%=      5-min Rain = 0
KGGS 081620Z 32005KT 20/M03 A2989 RMK A01 T01951030  RH  022%=      5-min Rain = 0
KGGS 081621Z 31003KT 19/M03 A2988 RMK A01 T01941028  RH  022%=      5-min Rain = 0
KGGS 081622Z 32004G9KT 19/M03 A2988 RMK A01 T01941029  RH  022%=      5-min Rain = 0
KGGS 081623Z 32006KT 20/M03 A2988 RMK A01 T01971025  RH  022%=      5-min Rain = 0
KGGS 081624Z 30007KT 20/M03 A2988 RMK A01 T01991028  RH  021%=      5-min Rain = 0
KGGS 081625Z 29006KT 20/M03 A2988 RMK A01 T01991027  RH  022%=      5-min Rain = 0
KGGS 081626Z 31006KT 20/M03 A2988 RMK A01 T01991028  RH  021%=      5-min Rain = 0
KGGS 081627Z 33007KT 20/M03 A2988 RMK A01 T02001026  RH  022%=      5-min Rain = 0
KGGS 081628Z 33007KT 20/M03 A2988 RMK A01 T02011029  RH  021%=      5-min Rain = 0
KGGS 081629Z 33006KT 20/M03 A2988 RMK A01 T02011029  RH  021%=      5-min Rain = 0
KGGS 081630Z 30002KT 20/M03 A2988 RMK A01 T02001029  RH  021%=      5-min Rain = 0
KGGS 081631Z 33003KT 20/M03 A2988 RMK A01 T02001028  RH  021%=      5-min Rain = 0
KGGS 081632Z 36004KT 20/M03 A2988 RMK A01 T02011027  RH  021%=      5-min Rain = 0
KGGS 081633Z 34008KT 20/M03 A2988 RMK A01 T02021027  RH  021%=      5-min Rain = 0
KGGS 081634Z 33008KT 20/M03 A2988 RMK A01 T02041029  RH  021%=      5-min Rain = 0
KGGS 081635Z 34007KT 20/M03 A2988 RMK A01 T02041027  RH  021%=      5-min Rain = 0
KGGS 081636Z 33007KT 20/M03 A2988 RMK A01 T02041028  RH  021%=      5-min Rain = 0
KGGS 081637Z 33005KT 20/M03 A2988 RMK A01 T02041029  RH  021%=      5-min Rain = 0
KGGS 081638Z 35005KT 20/M03 A2988 RMK A01 T02041029  RH  021%=      5-min Rain = 0
KGGS 081639Z 34006KT 21/M03 A2988 RMK A01 T02051029  RH  020%=      5-min Rain = 0
KGGS 081640Z 34004KT 20/M03 A2988 RMK A01 T02041031  RH  020%=      5-min Rain = 0
KGGS 081641Z 33006KT 20/M03 A2988 RMK A01 T02041027  RH  021%=      5-min Rain = 0
KGGS 081642Z 30005KT 21/M03 A2988 RMK A01 T02061029  RH  020%=      5-min Rain = 0
KGGS 081643Z 26004KT 21/M03 A2987 RMK A01 T02051032  RH  020%=      5-min Rain = 0
KGGS 081644Z 24002KT 21/M03 A2987 RMK A01 T02051032  RH  020%=      5-min Rain = 0
KGGS 081645Z 29004KT 21/M03 A2987 RMK A01 T02051027  RH  021%=      5-min Rain = 0
KGGS 081646Z 30005KT 21/M02 A2988 RMK A01 T02081024  RH  021%=      5-min Rain = 0
KGGS 081647Z 31005KT 21/M03 A2988 RMK A01 T02101027  RH  020%=      5-min Rain = 0
KGGS 081648Z 30003KT 21/M03 A2987 RMK A01 T02091030  RH  020%=      5-min Rain = 0
KGGS 081649Z 33001KT 21/M03 A2987 RMK A01 T02091029  RH  020%=      5-min Rain = 0
KGGS 081650Z 32001KT 21/M03 A2987 RMK A01 T02091030  RH  020%=      5-min Rain = 0
KGGS 081651Z 35000KT 21/M03 A2987 RMK A01 T02101027  RH  020%=      5-min Rain = 0
KGGS 081652Z 01001KT 21/M03 A2987 RMK A01 T02121026  RH  020%=      5-min Rain = 0
KGGS 081653Z 34004KT 21/M03 A2987 RMK A01 T02141029  RH  019%=      5-min Rain = 0
KGGS 081654Z 33006KT 22/M03 A2987 RMK A01 T02161031  RH  019%=      5-min Rain = 0
KGGS 081655Z 31005KT 22/M04 A2987 RMK A01 T02171036  RH  018%=      5-min Rain = 0
KGGS 081656Z 29006KT 22/M04 A2987 RMK A01 T02181037  RH  018%=      5-min Rain = 0
KGGS 081657Z 28005KT 22/M04 A2987 RMK A01 T02211035  RH  018%=      5-min Rain = 0
KGGS 081658Z 28003KT 22/M04 A2987 RMK A01 T02211039  RH  017%=      5-min Rain = 0
KGGS 081659Z 32003G8KT 22/M04 A2987 RMK A01 T02201039  RH  017%=      5-min Rain = 0
KGGS 081700Z 32006KT 22/M03 A2987 RMK A01 T02201034  RH  018%=      5-min Rain = 0
KGGS 081701Z 31007KT 22/M04 A2987 RMK A01 T02221037  RH  017%=      5-min Rain = 0
KGGS 081702Z 30008KT 22/M04 A2987 RMK A01 T02221039  RH  017%=      5-min Rain = 0
KGGS 081703Z 30005KT 22/M04 A2987 RMK A01 T02221038  RH  017%=      5-min Rain = 0
KGGS 081704Z 29006KT 23/M04 A2987 RMK A01 T02251038  RH  017%=      5-min Rain = 0
KGGS 081705Z 32005KT 23/M04 A2987 RMK A01 T02261040  RH  017%=      5-min Rain = 0
KGGS 081706Z 28007KT 23/M04 A2987 RMK A01 T02261036  RH  017%=      5-min Rain = 0
KGGS 081707Z 30007KT 23/M04 A2987 RMK A01 T02291035  RH  017%=      5-min Rain = 0
KGGS 081708Z 34007KT 23/M03 A2987 RMK A01 T02291032  RH  017%=      5-min Rain = 0
KGGS 081709Z 31005KT 23/M03 A2987 RMK A01 T02311032  RH  017%=      5-min Rain = 0
KGGS 081710Z 32004G10KT 23/M04 A2987 RMK A01 T02321035  RH  017%=      5-min Rain = 0
KGGS 081711Z 32010KT 23/M03 A2987 RMK A01 T02331033  RH  017%=      5-min Rain = 0
KGGS 081712Z 30005KT 23/M04 A2987 RMK A01 T02341038  RH  016%=      5-min Rain = 0
KGGS 081713Z 33007KT 23/M04 A2987 RMK A01 T02331037  RH  016%=      5-min Rain = 0
KGGS 081714Z 33005KT 23/M04 A2987 RMK A01 T02311039  RH  016%=      5-min Rain = 0
KGGS 081715Z 29004KT 23/M04 A2987 RMK A01 T02291041  RH  016%=      5-min Rain = 0
KGGS 081716Z 29006KT 23/M04 A2987 RMK A01 T02291036  RH  017%=      5-min Rain = 0
KGGS 081717Z 33008KT 23/M03 A2987 RMK A01 T02331034  RH  017%=      5-min Rain = 0
KGGS 081718Z 32007KT 23/M04 A2987 RMK A01 T02331038  RH  016%=      5-min Rain = 0
KGGS 081719Z 33005KT 23/M04 A2987 RMK A01 T02321037  RH  016%=      5-min Rain = 0
KGGS 081720Z 32002KT 23/M04 A2986 RMK A01 T02321040  RH  016%=      5-min Rain = 0
KGGS 081721Z 32004KT 23/M04 A2986 RMK A01 T02301039  RH  016%=      5-min Rain = 0
KGGS 081722Z 31005KT 23/M04 A2986 RMK A01 T02291035  RH  017%=      5-min Rain = 0
KGGS 081723Z 34004KT 23/M03 A2986 RMK A01 T02271032  RH  017%=      5-min Rain = 0
KGGS 081724Z 00007KT 23/M03 A2986 RMK A01 T02301031  RH  017%=      5-min Rain = 0
KGGS 081725Z 34006KT 23/M03 A2986 RMK A01 T02311034  RH  017%=      5-min Rain = 0
KGGS 081726Z 36007KT 23/M03 A2986 RMK A01 T02301031  RH  017%=      5-min Rain = 0
KGGS 081727Z 36006KT 23/M03 A2986 RMK A01 T02311032  RH  017%=      5-min Rain = 0
KGGS 081728Z 02006KT 23/M04 A2986 RMK A01 T02311035  RH  017%=      5-min Rain = 0
KGGS 081729Z 34004KT 23/M03 A2986 RMK A01 T02311031  RH  017%=      5-min Rain = 0
KGGS 081730Z 31005KT 23/M03 A2986 RMK A01 T02331030  RH  017%=      5-min Rain = 0
KGGS 081731Z 01005KT 23/M03 A2986 RMK A01 T02341029  RH  017%=      5-min Rain = 0
KGGS 081732Z 00004KT 23/M03 A2986 RMK A01 T02331031  RH  017%=      5-min Rain = 0
KGGS 081733Z 02002KT 23/M03 A2986 RMK A01 T02321034  RH  017%=      5-min Rain = 0
KGGS 081734Z 34002KT 23/M03 A2986 RMK A01 T02311032  RH  017%=      5-min Rain = 0
KGGS 081735Z 24001KT 23/M03 A2986 RMK A01 T02311034  RH  017%=      5-min Rain = 0
KGGS 081736Z 35003G8KT 23/M03 A2986 RMK A01 T02311032  RH  017%=      5-min Rain = 0
KGGS 081737Z 00006KT 23/M03 A2986 RMK A01 T02341033  RH  017%=      5-min Rain = 0
KGGS 081738Z 35004KT 23/M04 A2986 RMK A01 T02341036  RH  016%=      5-min Rain = 0
KGGS 081739Z 02004KT 23/M03 A2986 RMK A01 T02341034  RH  017%=      5-min Rain = 0
KGGS 081740Z 01008KT 24/M03 A2985 RMK A01 T02381034  RH  016%=      5-min Rain = 0
KGGS 081741Z 02005KT 24/M03 A2986 RMK A01 T02381034  RH  016%=      5-min Rain = 0
KGGS 081742Z 02004KT 24/M04 A2986 RMK A01 T02371038  RH  016%=      5-min Rain = 0
KGGS 081743Z 33007KT 24/M03 A2986 RMK A01 T02371032  RH  017%=      5-min Rain = 0
KGGS 081744Z 34006KT 24/M03 A2985 RMK A01 T02401033  RH  016%=      5-min Rain = 0
KGGS 081745Z 34008KT 24/M03 A2985 RMK A01 T02411028  RH  017%=      5-min Rain = 0
KGGS 081746Z 01006KT 24/M03 A2985 RMK A01 T02431032  RH  016%=      5-min Rain = 0
KGGS 081747Z 02004KT 24/M03 A2985 RMK A01 T02411033  RH  016%=      5-min Rain = 0
KGGS 081748Z 36005KT 24/M03 A2985 RMK A01 T02401032  RH  016%=      5-min Rain = 0
KGGS 081749Z 34005KT 24/M03 A2985 RMK A01 T02401033  RH  016%=      5-min Rain = 0
KGGS 081750Z 34007KT 24/M03 A2985 RMK A01 T02401032  RH  016%=      5-min Rain = 0
KGGS 081751Z 30008KT 24/M03 A2985 RMK A01 T02401034  RH  016%=      5-min Rain = 0
KGGS 081752Z 35007KT 24/M03 A2985 RMK A01 T02441030  RH  016%=      5-min Rain = 0
KGGS 081753Z 01004KT 25/M03 A2985 RMK A01 T02451031  RH  016%=      5-min Rain = 0
KGGS 081754Z 03006KT 24/M03 A2985 RMK A01 T02441031  RH  016%=      5-min Rain = 0
KGGS 081755Z 01004KT 24/M03 A2985 RMK A01 T02421031  RH  016%=      5-min Rain = 0
KGGS 081756Z 34002KT 24/M03 A2985 RMK A01 T02411031  RH  016%=      5-min Rain = 0
KGGS 081757Z 31001KT 24/M03 A2985 RMK A01 T02411031  RH  016%=      5-min Rain = 0
KGGS 081758Z 32003G8KT 24/M03 A2985 RMK A01 T02421033  RH  016%=      5-min Rain = 0
KGGS 081759Z 35007KT 24/M03 A2985 RMK A01 T02431031  RH  016%=      5-min Rain = 0
KGGS 081800Z 00008KT 24/M03 A2985 RMK A01 T02431032  RH  016%=      5-min Rain = 0
KGGS 081801Z 01005KT 24/M03 A2985 RMK A01 T02421033  RH  016%=      5-min Rain = 0
KGGS 081802Z 33002KT 24/M04 A2985 RMK A01 T02411035  RH  016%=      5-min Rain = 0
KGGS 081803Z 36005G10KT 24/M03 A2985 RMK A01 T02391034  RH  016%=      5-min Rain = 0
KGGS 081804Z 35006KT 24/M03 A2985 RMK A01 T02421031  RH  016%=      5-min Rain = 0
KGGS 081805Z 01008KT 24/M03 A2985 RMK A01 T02441032  RH  016%=      5-min Rain = 0
KGGS 081806Z 36008G13KT 25/M03 A2985 RMK A01 T02451032  RH  016%=      5-min Rain = 0
KGGS 081807Z 35005G11KT 25/M03 A2985 RMK A01 T02471032  RH  016%=      5-min Rain = 0
KGGS 081808Z 35005G10KT 25/M03 A2985 RMK A01 T02461033  RH  015%=      5-min Rain = 0
KGGS 081809Z 35008KT 25/M03 A2985 RMK A01 T02461031  RH  016%=      5-min Rain = 0
KGGS 081810Z 36005KT 25/M03 A2985 RMK A01 T02471031  RH  016%=      5-min Rain = 0
KGGS 081811Z 01005KT 25/M03 A2985 RMK A01 T02461031  RH  016%=      5-min Rain = 0
KGGS 081812Z 34009KT 25/M03 A2984 RMK A01 T02451033  RH  016%=      5-min Rain = 0
KGGS 081813Z 34011KT 25/M03 A2984 RMK A01 T02461033  RH  015%=      5-min Rain = 0
KGGS 081814Z 34009KT 25/M03 A2984 RMK A01 T02521032  RH  015%=      5-min Rain = 0
KGGS 081815Z 34009KT 25/M04 A2984 RMK A01 T02541035  RH  015%=      5-min Rain = 0
KGGS 081816Z 34009KT 26/M04 A2984 RMK A01 T02551035  RH  015%=      5-min Rain = 0
KGGS 081817Z 35008KT 26/M04 A2984 RMK A01 T02581036  RH  014%=      5-min Rain = 0
KGGS 081818Z 01007KT 26/M04 A2984 RMK A01 T02581036  RH  014%=      5-min Rain = 0
KGGS 081819Z 01006KT 26/M04 A2984 RMK A01 T02551039  RH  014%=      5-min Rain = 0
KGGS 081820Z 01003KT 25/M04 A2984 RMK A01 T02511040  RH  014%=      5-min Rain = 0
KGGS 081821Z 34004KT 25/M04 A2984 RMK A01 T02491038  RH  015%=      5-min Rain = 0
KGGS 081822Z 00006G11KT 25/M04 A2984 RMK A01 T02511037  RH  015%=      5-min Rain = 0
KGGS 081823Z 36008KT 25/M03 A2984 RMK A01 T02511033  RH  015%=      5-min Rain = 0
KGGS 081824Z 01009KT 25/M03 A2984 RMK A01 T02541034  RH  015%=      5-min Rain = 0
KGGS 081825Z 01007KT 26/M04 A2984 RMK A01 T02551036  RH  014%=      5-min Rain = 0
KGGS 081826Z 35009KT 26/M03 A2984 RMK A01 T02561033  RH  015%=      5-min Rain = 0
KGGS 081827Z 33010KT 26/M03 A2984 RMK A01 T02571030  RH  015%=      5-min Rain = 0
KGGS 081828Z 32007KT 26/M03 A2984 RMK A01 T02581030  RH  015%=      5-min Rain = 0
KGGS 081829Z 33005KT 26/M03 A2984 RMK A01 T02581029  RH  015%=      5-min Rain = 0
KGGS 081830Z 35007KT 26/M03 A2984 RMK A01 T02591030  RH  015%=      5-min Rain = 0
KGGS 081831Z 36006KT 26/M03 A2983 RMK A01 T02581033  RH  014%=      5-min Rain = 0
KGGS 081832Z 01006KT 26/M03 A2984 RMK A01 T02571031  RH  015%=      5-min Rain = 0
KGGS 081833Z 01003KT 26/M04 A2983 RMK A01 T02561036  RH  014%=      5-min Rain = 0
KGGS 081834Z 01001KT 25/M04 A2983 RMK A01 T02531036  RH  015%=      5-min Rain = 0
KGGS 081835Z 35006KT 25/M03 A2983 RMK A01 T02531034  RH  015%=      5-min Rain = 0
KGGS 081836Z 32008KT 26/M03 A2984 RMK A01 T02561032  RH  015%=      5-min Rain = 0
KGGS 081837Z 32003G8KT 26/M04 A2983 RMK A01 T02591040  RH  014%=      5-min Rain = 0
KGGS 081838Z 33004KT 26/M04 A2983 RMK A01 T02571039  RH  014%=      5-min Rain = 0
KGGS 081839Z 01006KT 26/M04 A2983 RMK A01 T02571035  RH  014%=      5-min Rain = 0
KGGS 081840Z 01005KT 26/M04 A2983 RMK A01 T02591037  RH  014%=      5-min Rain = 0
KGGS 081841Z 01006KT 26/M04 A2983 RMK A01 T02581035  RH  014%=      5-min Rain = 0
KGGS 081842Z 00005KT 26/M03 A2983 RMK A01 T02561032  RH  015%=      5-min Rain = 0
KGGS 081843Z 35002KT 26/M03 A2983 RMK A01 T02581029  RH  015%=      5-min Rain = 0
KGGS 081844Z 34006KT 26/M03 A2983 RMK A01 T02611029  RH  015%=      5-min Rain = 0
KGGS 081845Z 36007KT 26/M04 A2983 RMK A01 T02621035  RH  014%=      5-min Rain = 0
KGGS 081846Z 35007KT 26/M03 A2983 RMK A01 T02611034  RH  014%=      5-min Rain = 0
KGGS 081847Z 35008KT 26/M03 A2983 RMK A01 T02631032  RH  014%=      5-min Rain = 0
KGGS 081848Z 33007KT 26/M04 A2983 RMK A01 T02641037  RH  013%=      5-min Rain = 0
KGGS 081849Z 34005KT 26/M04 A2982 RMK A01 T02621038  RH  014%=      5-min Rain = 0
KGGS 081850Z 35004KT 26/M04 A2982 RMK A01 T02621035  RH  014%=      5-min Rain = 0
KGGS 081851Z 01004G10KT 26/M03 A2982 RMK A01 T02641034  RH  014%=      5-min Rain = 0
KGGS 081852Z 01009KT 26/M03 A2982 RMK A01 T02641032  RH  014%=      5-min Rain = 0
KGGS 081853Z 01006KT 26/M03 A2982 RMK A01 T02631034  RH  014%=      5-min Rain = 0
KGGS 081854Z 06004KT 26/M04 A2982 RMK A01 T02591037  RH  014%=      5-min Rain = 0
KGGS 081855Z 33002KT 26/M04 A2982 RMK A01 T02571036  RH  014%=      5-min Rain = 0
KGGS 081856Z 33003KT 26/M04 A2982 RMK A01 T02571035  RH  014%=      5-min Rain = 0
KGGS 081857Z 00006KT 26/M03 A2982 RMK A01 T02591029  RH  015%=      5-min Rain = 0
KGGS 081858Z 00005KT 26/M03 A2982 RMK A01 T02641030  RH  014%=      5-min Rain = 0
KGGS 081859Z 34003KT 27/M03 A2982 RMK A01 T02681034  RH  014%=      5-min Rain = 0
KGGS 081900Z 33004KT 27/M03 A2982 RMK A01 T02691033  RH  014%=      5-min Rain = 0
KGGS 081901Z 31005KT 27/M06 A2982 RMK A01 T02701055  RH  011%=      5-min Rain = 0
KGGS 081902Z 30005KT 27/M05 A2982 RMK A01 T02691054  RH  012%=      5-min Rain = 0
KGGS 081903Z 31004KT 27/M05 A2982 RMK A01 T02681054  RH  012%=      5-min Rain = 0
KGGS 081904Z 34004KT 27/M05 A2981 RMK A01 T02671049  RH  012%=      5-min Rain = 0
KGGS 081905Z 36006KT 27/M04 A2981 RMK A01 T02671039  RH  013%=      5-min Rain = 0
KGGS 081906Z 36005KT 27/M04 A2981 RMK A01 T02661043  RH  013%=      5-min Rain = 0
KGGS 081907Z 31001KT 26/M04 A2981 RMK A01 T02621042  RH  013%=      5-min Rain = 0
KGGS 081908Z 02006KT 26/M04 A2981 RMK A01 T02621040  RH  013%=      5-min Rain = 0
KGGS 081909Z 02007KT 26/M04 A2981 RMK A01 T02641041  RH  013%=      5-min Rain = 0
KGGS 081910Z 02004KT 27/M04 A2981 RMK A01 T02671042  RH  013%=      5-min Rain = 0
KGGS 081911Z 03004KT 27/M04 A2981 RMK A01 T02651044  RH  013%=      5-min Rain = 0
KGGS 081912Z 03004KT 27/M05 A2981 RMK A01 T02651046  RH  013%=      5-min Rain = 0
KGGS 081913Z 01005KT 26/M05 A2981 RMK A01 T02641046  RH  013%=      5-min Rain = 0
KGGS 081914Z 02007KT 27/M04 A2981 RMK A01 T02651038  RH  013%=      5-min Rain = 0
KGGS 081915Z 02007KT 27/M04 A2981 RMK A01 T02701042  RH  013%=      5-min Rain = 0
KGGS 081916Z 35008KT 27/M04 A2981 RMK A01 T02721040  RH  013%=      5-min Rain = 0
KGGS 081917Z 35007KT 27/M04 A2981 RMK A01 T02721041  RH  013%=      5-min Rain = 0
KGGS 081918Z 34004KT 27/M04 A2981 RMK A01 T02721040  RH  013%=      5-min Rain = 0
KGGS 081919Z 00004KT 27/M04 A2981 RMK A01 T02711039  RH  013%=      5-min Rain = 0
KGGS 081920Z 01002KT 27/M04 A298 RMK A01 T02721043  RH  012%=      5-min Rain = 0
KGGS 081921Z 26001KT 27/M05 A298 RMK A01 T02711047  RH  012%=      5-min Rain = 0
KGGS 081922Z 31002KT 27/M05 A298 RMK A01 T02711047  RH  012%=      5-min Rain = 0
KGGS 081923Z 30007KT 27/M05 A298 RMK A01 T02731048  RH  012%=      5-min Rain = 0
KGGS 081924Z 30006KT 28/M05 A298 RMK A01 T02761054  RH  011%=      5-min Rain = 0
KGGS 081925Z 31007KT 28/M06 A298 RMK A01 T02761055  RH  011%=      5-min Rain = 0
KGGS 081926Z 28005KT 28/M07 A298 RMK A01 T02761066  RH  010%=      5-min Rain = 0
KGGS 081927Z 27003KT 27/M07 A298 RMK A01 T02741068  RH  010%=      5-min Rain = 0
KGGS 081928Z 25001KT 27/M07 A298 RMK A01 T02721071  RH  010%=      5-min Rain = 0
KGGS 081929Z 31001KT 27/M07 A298 RMK A01 T02721068  RH  010%=      5-min Rain = 0
KGGS 081930Z 01004KT 27/M06 A298 RMK A01 T02741059  RH  011%=      5-min Rain = 0
KGGS 081931Z 01003KT 27/M06 A298 RMK A01 T02741057  RH  011%=      5-min Rain = 0
KGGS 081932Z 33001KT 27/M05 A298 RMK A01 T02741054  RH  011%=      5-min Rain = 0
KGGS 081933Z 01003G8KT 28/M05 A298 RMK A01 T02751051  RH  011%=      5-min Rain = 0
KGGS 081934Z 01004KT 28/M05 A298 RMK A01 T02761046  RH  012%=      5-min Rain = 0
KGGS 081935Z 31005G10KT 28/M05 A298 RMK A01 T02801046  RH  012%=      5-min Rain = 0
KGGS 081936Z 30009KT 28/M05 A298 RMK A01 T02811051  RH  011%=      5-min Rain = 0
KGGS 081937Z 31007KT 28/M05 A298 RMK A01 T02801052  RH  011%=      5-min Rain = 0
KGGS 081938Z 28006KT 28/M06 A298 RMK A01 T02811056  RH  011%=      5-min Rain = 0
KGGS 081939Z 30004KT 28/M06 A298 RMK A01 T02791059  RH  011%=      5-min Rain = 0
KGGS 081940Z 31005KT 28/M06 A298 RMK A01 T02771061  RH  010%=      5-min Rain = 0
KGGS 081941Z 30004KT 27/M06 A298 RMK A01 T02741059  RH  011%=      5-min Rain = 0
KGGS 081942Z 33001KT 28/M06 A298 RMK A01 T02751064  RH  010%=      5-min Rain = 0
KGGS 081943Z 32002G8KT 28/M06 A2979 RMK A01 T02751064  RH  010%=      5-min Rain = 0
KGGS 081944Z 30004KT 28/M06 A2979 RMK A01 T02751061  RH  011%=      5-min Rain = 0
KGGS 081945Z 29002KT 27/M06 A2979 RMK A01 T02741060  RH  011%=      5-min Rain = 0
KGGS 081946Z 32007KT 28/M06 A2979 RMK A01 T02751055  RH  011%=      5-min Rain = 0
KGGS 081947Z 33004KT 28/M05 A2979 RMK A01 T02761054  RH  011%=      5-min Rain = 0
KGGS 081948Z 32001KT 28/M05 A2979 RMK A01 T02761052  RH  011%=      5-min Rain = 0
KGGS 081949Z 09000KT 28/M06 A2979 RMK A01 T02771057  RH  011%=      5-min Rain = 0
KGGS 081950Z 09000KT 28/M06 A2979 RMK A01 T02781058  RH  011%=      5-min Rain = 0
KGGS 081951Z 31003KT 28/M05 A2979 RMK A01 T02791053  RH  011%=      5-min Rain = 0
KGGS 081952Z 36004KT 28/M05 A2979 RMK A01 T02811051  RH  011%=      5-min Rain = 0
KGGS 081953Z 04004KT 28/M06 A2979 RMK A01 T02811055  RH  011%=      5-min Rain = 0
KGGS 081954Z 05004KT 28/M05 A2979 RMK A01 T02791054  RH  011%=      5-min Rain = 0
KGGS 081955Z 05003KT 28/M06 A2979 RMK A01 T02781057  RH  011%=      5-min Rain = 0
KGGS 081956Z 08003KT 28/M06 A2979 RMK A01 T02771057  RH  011%=      5-min Rain = 0
KGGS 081957Z 07004KT 28/M05 A2979 RMK A01 T02771054  RH  011%=      5-min Rain = 0
KGGS 081958Z 06003KT 28/M06 A2979 RMK A01 T02791056  RH  011%=      5-min Rain = 0
KGGS 081959Z 06003KT 28/M06 A2979 RMK A01 T02791056  RH  011%=      5-min Rain = 0
KGGS 082000Z 06002KT 28/M06 A2979 RMK A01 T02781056  RH  011%=      5-min Rain = 0
KGGS 082001Z 34005KT 28/M05 A2979 RMK A01 T02791048  RH  011%=      5-min Rain = 0
KGGS 082002Z 00007KT 28/M05 A2979 RMK A01 T02831047  RH  011%=      5-min Rain = 0
KGGS 082003Z 02006KT 28/M05 A2979 RMK A01 T02831051  RH  011%=      5-min Rain = 0
KGGS 082004Z 00004KT 28/M05 A2979 RMK A01 T02821049  RH  011%=      5-min Rain = 0
KGGS 082005Z 35004KT 28/M05 A2979 RMK A01 T02841051  RH  011%=      5-min Rain = 0
KGGS 082006Z 36002KT 29/M06 A2978 RMK A01 T02851058  RH  010%=      5-min Rain = 0
KGGS 082007Z 26001KT 28/M06 A2978 RMK A01 T02841059  RH  010%=      5-min Rain = 0
KGGS 082008Z 07005G10KT 29/M06 A2978 RMK A01 T02861056  RH  010%=      5-min Rain = 0
KGGS 082009Z 01006KT 29/M05 A2978 RMK A01 T02891051  RH  010%=      5-min Rain = 0
KGGS 082010Z 01006KT 29/M05 A2978 RMK A01 T02891050  RH  011%=      5-min Rain = 0
KGGS 082011Z 35003KT 29/M07 A2978 RMK A01 T02871066  RH  010%=      5-min Rain = 0
KGGS 082012Z 22005KT 29/M06 A2978 RMK A01 T02861061  RH  010%=      5-min Rain = 0
KGGS 082013Z 17008KT 29/M06 A2977 RMK A01 T02891061  RH  010%=      5-min Rain = 0
KGGS 082014Z 04008KT 29/M06 A2977 RMK A01 T02931057  RH  010%=      5-min Rain = 0
KGGS 082015Z 35006KT 29/M05 A2978 RMK A01 T02911052  RH  010%=      5-min Rain = 0
KGGS 082016Z 29003KT 29/M06 A2978 RMK A01 T02881059  RH  010%=      5-min Rain = 0
KGGS 082017Z 24001KT 29/M07 A2978 RMK A01 T02871068  RH  009%=      5-min Rain = 0
KGGS 082018Z 05002KT 29/M07 A2978 RMK A01 T02861069  RH  009%=      5-min Rain = 0
KGGS 082019Z 06003KT 29/M06 A2978 RMK A01 T02881059  RH  010%=      5-min Rain = 0
KGGS 082020Z 06001KT 29/M06 A2978 RMK A01 T02871057  RH  010%=      5-min Rain = 0
KGGS 082021Z 34004KT 29/M06 A2978 RMK A01 T02871058  RH  010%=      5-min Rain = 0
KGGS 082022Z 31009KT 29/M06 A2978 RMK A01 T02901061  RH  010%=      5-min Rain = 0
KGGS 082023Z 32011KT 29/M06 A2978 RMK A01 T02931062  RH  009%=      5-min Rain = 0
KGGS 082024Z 32010KT 29/M07 A2978 RMK A01 T02931071  RH  009%=      5-min Rain = 0
KGGS 082025Z 31008KT 29/M07 A2978 RMK A01 T02911071  RH  009%=      5-min Rain = 0
KGGS 082026Z 32008KT 29/M07 A2977 RMK A01 T02901071  RH  009%=      5-min Rain = 0
KGGS 082027Z 29008KT 29/M07 A2978 RMK A01 T02901071  RH  009%=      5-min Rain = 0
KGGS 082028Z 28002KT 29/M08 A2977 RMK A01 T02881081  RH  008%=      5-min Rain = 0
KGGS 082029Z 01002KT 29/M08 A2977 RMK A01 T02851079  RH  009%=      5-min Rain = 0
KGGS 082030Z 06002KT 28/M08 A2977 RMK A01 T02841081  RH  009%=      5-min Rain = 0
KGGS 082031Z 07003KT 28/M08 A2977 RMK A01 T02831079  RH  009%=      5-min Rain = 0
KGGS 082032Z 04003KT 28/M08 A2977 RMK A01 T02841077  RH  009%=      5-min Rain = 0
KGGS 082033Z 29006KT 29/M07 A2977 RMK A01 T02881072  RH  009%=      5-min Rain = 0
KGGS 082034Z 32005G10KT 29/M07 A2977 RMK A01 T02901072  RH  009%=      5-min Rain = 0
KGGS 082035Z 32007KT 29/M06 A2977 RMK A01 T02911062  RH  010%=      5-min Rain = 0
KGGS 082036Z 32007KT 29/M06 A2977 RMK A01 T02921059  RH  010%=      5-min Rain = 0
KGGS 082037Z 32006KT 29/M07 A2977 RMK A01 T02921065  RH  009%=      5-min Rain = 0
KGGS 082038Z 28004G9KT 29/M07 A2977 RMK A01 T02911071  RH  009%=      5-min Rain = 0
KGGS 082039Z 29007KT 29/M07 A2976 RMK A01 T02921069  RH  009%=      5-min Rain = 0
KGGS 082040Z 26005KT 29/M07 A2976 RMK A01 T02931072  RH  009%=      5-min Rain = 0
KGGS 082041Z 28008KT 29/M07 A2976 RMK A01 T02931070  RH  009%=      5-min Rain = 0
KGGS 082042Z 27011KT 30/M07 A2976 RMK A01 T02951069  RH  009%=      5-min Rain = 0
KGGS 082043Z 26010KT 30/M07 A2976 RMK A01 T02951070  RH  009%=      5-min Rain = 0
KGGS 082044Z 26007KT 29/M07 A2976 RMK A01 T02931074  RH  009%=      5-min Rain = 0
KGGS 082045Z 27007KT 29/M08 A2976 RMK A01 T02921075  RH  009%=      5-min Rain = 0
KGGS 082046Z 27006KT 29/M08 A2976 RMK A01 T02901076  RH  009%=      5-min Rain = 0
KGGS 082047Z 29004KT 29/M07 A2976 RMK A01 T02901073  RH  009%=      5-min Rain = 0
KGGS 082048Z 29004KT 29/M07 A2976 RMK A01 T02911071  RH  009%=      5-min Rain = 0
KGGS 082049Z 25001KT 29/M08 A2976 RMK A01 T02921077  RH  008%=      5-min Rain = 0
KGGS 082050Z 35001KT 29/M08 A2976 RMK A01 T02921075  RH  009%=      5-min Rain = 0
KGGS 082051Z 25004KT 29/M07 A2976 RMK A01 T02921073  RH  009%=      5-min Rain = 0
KGGS 082052Z 24003KT 29/M08 A2976 RMK A01 T02921078  RH  008%=      5-min Rain = 0
KGGS 082053Z 25004KT 29/M08 A2976 RMK A01 T02901076  RH  009%=      5-min Rain = 0
KGGS 082054Z 33005KT 29/M07 A2976 RMK A01 T02891072  RH  009%=      5-min Rain = 0
KGGS 082055Z 30005KT 29/M07 A2976 RMK A01 T02881074  RH  009%=      5-min Rain = 0
KGGS 082056Z 27005KT 29/M08 A2976 RMK A01 T02881076  RH  009%=      5-min Rain = 0
KGGS 082057Z 27005KT 29/M07 A2976 RMK A01 T02891072  RH  009%=      5-min Rain = 0
KGGS 082058Z 29007KT 29/M07 A2976 RMK A01 T02921073  RH  009%=      5-min Rain = 0
KGGS 082059Z 27004KT 29/M08 A2976 RMK A01 T02911077  RH  009%=      5-min Rain = 0
KGGS 082100Z 28002KT 29/M08 A2975 RMK A01 T02891077  RH  009%=      5-min Rain = 0
KGGS 082101Z 30001KT 29/M08 A2975 RMK A01 T02891078  RH  009%=      5-min Rain = 0
KGGS 082102Z 27002KT 29/M08 A2975 RMK A01 T02901076  RH  009%=      5-min Rain = 0
KGGS 082103Z 29002KT 29/M08 A2975 RMK A01 T02911075  RH  009%=      5-min Rain = 0
KGGS 082104Z 32006G12KT 29/M07 A2975 RMK A01 T02921074  RH  009%=      5-min Rain = 0
KGGS 082105Z 32007KT 29/M08 A2975 RMK A01 T02931075  RH  009%=      5-min Rain = 0
KGGS 082106Z 31005KT 29/M08 A2975 RMK A01 T02941079  RH  008%=      5-min Rain = 0
KGGS 082107Z 28004KT 29/M08 A2975 RMK A01 T02931080  RH  008%=      5-min Rain = 0
KGGS 082108Z 26003KT 29/M08 A2975 RMK A01 T02931079  RH  008%=      5-min Rain = 0
KGGS 082109Z 33004KT 29/M07 A2975 RMK A01 T02941072  RH  009%=      5-min Rain = 0
KGGS 082110Z 34007KT 30/M08 A2975 RMK A01 T02971076  RH  008%=      5-min Rain = 0
KGGS 082111Z 34006KT 30/M07 A2975 RMK A01 T02981073  RH  008%=      5-min Rain = 0
KGGS 082112Z 33005KT 30/M07 A2975 RMK A01 T02991074  RH  008%=      5-min Rain = 0
KGGS 082113Z 34006KT 30/M08 A2975 RMK A01 T02981079  RH  008%=      5-min Rain = 0
KGGS 082114Z 31005KT 30/M08 A2975 RMK A01 T02951076  RH  008%=      5-min Rain = 0
KGGS 082115Z 28002KT 30/M08 A2975 RMK A01 T02951077  RH  008%=      5-min Rain = 0
KGGS 082116Z 24009KT 30/M08 A2975 RMK A01 T02961075  RH  008%=      5-min Rain = 0
KGGS 082117Z 26011G16KT 30/M07 A2975 RMK A01 T02991073  RH  008%=      5-min Rain = 0
KGGS 082118Z 26011G16KT 30/M08 A2975 RMK A01 T03021075  RH  008%=      5-min Rain = 0
KGGS 082119Z 25005KT 30/M08 A2975 RMK A01 T03021075  RH  008%=      5-min Rain = 0
KGGS 082120Z 21004KT 30/M08 A2975 RMK A01 T03021077  RH  008%=      5-min Rain = 0
KGGS 082121Z 21004KT 30/M08 A2975 RMK A01 T03011079  RH  008%=      5-min Rain = 0
KGGS 082122Z 21007KT 30/M08 A2975 RMK A01 T02981079  RH  008%=      5-min Rain = 0
KGGS 082123Z 20005KT 30/M08 A2975 RMK A01 T02971078  RH  008%=      5-min Rain = 0
KGGS 082124Z 20004KT 30/M08 A2975 RMK A01 T02961081  RH  008%=      5-min Rain = 0
KGGS 082125Z 21003KT 30/M08 A2975 RMK A01 T02961084  RH  008%=      5-min Rain = 0
KGGS 082126Z 18003KT 29/M08 A2975 RMK A01 T02941083  RH  008%=      5-min Rain = 0
KGGS 082127Z 17002KT 29/M08 A2975 RMK A01 T02941081  RH  008%=      5-min Rain = 0
KGGS 082128Z 19003KT 30/M08 A2974 RMK A01 T02951079  RH  008%=      5-min Rain = 0
KGGS 082129Z 25002KT 30/M08 A2974 RMK A01 T02961077  RH  008%=      5-min Rain = 0
KGGS 082130Z 25005KT 30/M07 A2974 RMK A01 T02991074  RH  008%=      5-min Rain = 0
KGGS 082131Z 23006KT 30/M08 A2974 RMK A01 T03011081  RH  008%=      5-min Rain = 0
KGGS 082132Z 24007KT 30/M08 A2974 RMK A01 T03001084  RH  008%=      5-min Rain = 0
KGGS 082133Z 23007G14KT 30/M09 A2974 RMK A01 T02991088  RH  007%=      5-min Rain = 0
KGGS 082134Z 25012KT 30/M09 A2974 RMK A01 T02971088  RH  008%=      5-min Rain = 0
KGGS 082135Z 27008KT 30/M09 A2974 RMK A01 T02961088  RH  008%=      5-min Rain = 0
KGGS 082136Z 26005KT 30/M09 A2974 RMK A01 T02951090  RH  008%=      5-min Rain = 0
KGGS 082137Z 24006KT 30/M09 A2974 RMK A01 T02951090  RH  007%=      5-min Rain = 0
KGGS 082138Z 26010KT 30/M09 A2974 RMK A01 T02961086  RH  008%=      5-min Rain = 0
KGGS 082139Z 28007KT 30/M08 A2974 RMK A01 T02981083  RH  008%=      5-min Rain = 0
KGGS 082140Z 28006KT 30/M09 A2974 RMK A01 T03011085  RH  008%=      5-min Rain = 0
KGGS 082141Z 24006KT 30/M09 A2974 RMK A01 T03021091  RH  007%=      5-min Rain = 0
KGGS 082142Z 25005KT 30/M10 A2974 RMK A01 T03001097  RH  007%=      5-min Rain = 0
KGGS 082143Z 27006KT 30/M08 A2974 RMK A01 T03001084  RH  008%=      5-min Rain = 0
KGGS 082144Z 30005KT 30/M08 A2974 RMK A01 T03041081  RH  008%=      5-min Rain = 0
KGGS 082145Z 29006KT 31/M08 A2973 RMK A01 T03051084  RH  007%=      5-min Rain = 0
KGGS 082146Z 28008KT 31/M08 A2974 RMK A01 T03051082  RH  008%=      5-min Rain = 0
KGGS 082147Z 27009KT 31/M09 A2974 RMK A01 T03061085  RH  007%=      5-min Rain = 0
KGGS 082148Z 27012KT 31/M09 A2974 RMK A01 T03061092  RH  007%=      5-min Rain = 0
KGGS 082149Z 26009KT 31/M09 A2973 RMK A01 T03061093  RH  007%=      5-min Rain = 0
KGGS 082150Z 25010KT 31/M09 A2973 RMK A01 T03051092  RH  007%=      5-min Rain = 0
KGGS 082151Z 25010KT 31/M09 A2973 RMK A01 T03051094  RH  007%=      5-min Rain = 0
KGGS 082152Z 25010KT 31/M09 A2973 RMK A01 T03051094  RH  007%=      5-min Rain = 0
KGGS 082153Z 27011KT 31/M09 A2973 RMK A01 T03051091  RH  007%=      5-min Rain = 0
KGGS 082154Z 24008KT 31/M09 A2973 RMK A01 T03051092  RH  007%=      5-min Rain = 0
KGGS 082155Z 25008KT 31/M10 A2973 RMK A01 T03051095  RH  007%=      5-min Rain = 0
KGGS 082156Z 25008KT 30/M10 A2973 RMK A01 T03041097  RH  007%=      5-min Rain = 0
KGGS 082157Z 25010KT 30/M10 A2973 RMK A01 T03021096  RH  007%=      5-min Rain = 0
KGGS 082158Z 26010KT 30/M10 A2973 RMK A01 T03001095  RH  007%=      5-min Rain = 0
KGGS 082159Z 27007KT 30/M09 A2973 RMK A01 T02991093  RH  007%=      5-min Rain = 0
KGGS 082200Z 26006KT 30/M09 A2973 RMK A01 T03001094  RH  007%=      5-min Rain = 0
KGGS 082201Z 27007G12KT 30/M09 A2973 RMK A01 T03021092  RH  007%=      5-min Rain = 0
KGGS 082202Z 30005KT 30/M10 A2973 RMK A01 T03011097  RH  007%=      5-min Rain = 0
KGGS 082203Z 33004KT 30/M10 A2973 RMK A01 T02981097  RH  007%=      5-min Rain = 0
KGGS 082204Z 32004KT 30/M09 A2973 RMK A01 T02981091  RH  007%=      5-min Rain = 0
KGGS 082205Z 31005KT 30/M09 A2973 RMK A01 T03011085  RH  008%=      5-min Rain = 0
KGGS 082206Z 30007KT 30/M09 A2973 RMK A01 T03031091  RH  007%=      5-min Rain = 0
KGGS 082207Z 28006KT 30/M09 A2972 RMK A01 T03021094  RH  007%=      5-min Rain = 0
KGGS 082208Z 29004KT 30/M10 A2972 RMK A01 T03021095  RH  007%=      5-min Rain = 0
KGGS 082209Z 27007KT 30/M09 A2972 RMK A01 T03001093  RH  007%=      5-min Rain = 0
KGGS 082210Z 26006KT 30/M09 A2972 RMK A01 T03001094  RH  007%=      5-min Rain = 0
KGGS 082211Z 29008G13KT 30/M09 A2972 RMK A01 T03011093  RH  007%=      5-min Rain = 0
KGGS 082212Z 31006KT 30/M09 A2972 RMK A01 T03011094  RH  007%=      5-min Rain = 0
KGGS 082213Z 32008KT 30/M09 A2972 RMK A01 T03011092  RH  007%=      5-min Rain = 0
KGGS 082214Z 35007KT 30/M10 A2972 RMK A01 T03001096  RH  007%=      5-min Rain = 0
KGGS 082215Z 32007KT 30/M09 A2972 RMK A01 T02991093  RH  007%=      5-min Rain = 0
KGGS 082216Z 26007KT 30/M09 A2972 RMK A01 T02991091  RH  007%=      5-min Rain = 0
KGGS 082217Z 25006KT 30/M10 A2972 RMK A01 T03011097  RH  007%=      5-min Rain = 0
KGGS 082218Z 26006KT 30/M10 A2972 RMK A01 T03011096  RH  007%=      5-min Rain = 0
KGGS 082219Z 24004KT 30/M10 A2972 RMK A01 T03001098  RH  007%=      5-min Rain = 0
KGGS 082220Z 23005KT 30/M09 A2972 RMK A01 T03001094  RH  007%=      5-min Rain = 0
KGGS 082221Z 23008KT 30/M09 A2971 RMK A01 T03021093  RH  007%=      5-min Rain = 0
KGGS 082222Z 27008KT 31/M09 A2972 RMK A01 T03061088  RH  007%=      5-min Rain = 0
KGGS 082223Z 30011KT 31/M09 A2972 RMK A01 T03091089  RH  007%=      5-min Rain = 0
KGGS 082224Z 29009KT 31/M10 A2971 RMK A01 T03071096  RH  007%=      5-min Rain = 0
KGGS 082225Z 30007KT 31/M10 A2971 RMK A01 T03051095  RH  007%=      5-min Rain = 0
KGGS 082226Z 31007KT 30/M10 A2971 RMK A01 T03041097  RH  007%=      5-min Rain = 0
KGGS 082227Z 29009KT 30/M10 A2971 RMK A01 T03021096  RH  007%=      5-min Rain = 0
KGGS 082228Z 29007KT 30/M09 A2971 RMK A01 T03011094  RH  007%=      5-min Rain = 0
KGGS 082229Z 28007KT 30/M09 A2971 RMK A01 T03031092  RH  007%=      5-min Rain = 0
KGGS 082230Z 28007KT 30/M10 A2971 RMK A01 T03031099  RH  007%=      5-min Rain = 0
KGGS 082231Z 27008KT 30/M10 A2971 RMK A01 T03011096  RH  007%=      5-min Rain = 0
KGGS 082232Z 25006G11KT 30/M10 A2971 RMK A01 T03011099  RH  007%=      5-min Rain = 0
KGGS 082233Z 28007KT 30/M09 A2971 RMK A01 T03011094  RH  007%=      5-min Rain = 0
KGGS 082234Z 25008G13KT 30/M10 A2971 RMK A01 T03031096  RH  007%=      5-min Rain = 0
KGGS 082235Z 26007G12KT 30/M10 A2971 RMK A01 T03031098  RH  007%=      5-min Rain = 0
KGGS 082236Z 23004KT 30/M10 A2971 RMK A01 T03021104  RH  007%=      5-min Rain = 0
KGGS 082237Z 20003KT 30/M10 A2971 RMK A01 T03001101  RH  007%=      5-min Rain = 0
KGGS 082238Z 15003KT 30/M10 A2971 RMK A01 T03011101  RH  007%=      5-min Rain = 0
KGGS 082239Z 18003KT 30/M10 A2971 RMK A01 T03011103  RH  007%=      5-min Rain = 0
KGGS 082240Z 23002KT 30/M10 A2971 RMK A01 T03011101  RH  007%=      5-min Rain = 0
KGGS 082241Z 23003KT 30/M10 A2971 RMK A01 T03011102  RH  007%=      5-min Rain = 0
KGGS 082242Z 25004G10KT 30/M10 A2971 RMK A01 T03011096  RH  007%=      5-min Rain = 0
KGGS 082243Z 27007KT 30/M10 A2971 RMK A01 T03021097  RH  007%=      5-min Rain = 0
KGGS 082244Z 28004KT 30/M10 A2971 RMK A01 T03021097  RH  007%=      5-min Rain = 0
KGGS 082245Z 27007KT 30/M10 A2971 RMK A01 T03011097  RH  007%=      5-min Rain = 0
KGGS 082246Z 24007KT 30/M10 A297 RMK A01 T03011102  RH  007%=      5-min Rain = 0
KGGS 082247Z 26005KT 30/M11 A297 RMK A01 T03031105  RH  006%=      5-min Rain = 0
KGGS 082248Z 25006KT 31/M10 A297 RMK A01 T03051104  RH  006%=      5-min Rain = 0
KGGS 082249Z 26008KT 31/M11 A297 RMK A01 T03061105  RH  006%=      5-min Rain = 0
KGGS 082250Z 24008KT 31/M11 A297 RMK A01 T03061105  RH  006%=      5-min Rain = 0
KGGS 082251Z 25007KT 31/M11 A297 RMK A01 T03061105  RH  006%=      5-min Rain = 0
KGGS 082252Z 25007KT 31/M11 A297 RMK A01 T03061105  RH  006%=      5-min Rain = 0
KGGS 082253Z 24007G14KT 31/M10 A297 RMK A01 T03051104  RH  006%=      5-min Rain = 0
KGGS 082254Z 23010KT 30/M11 A297 RMK A01 T03041105  RH  006%=      5-min Rain = 0
KGGS 082255Z 23009KT 30/M11 A297 RMK A01 T03041108  RH  006%=      5-min Rain = 0
KGGS 082256Z 23008KT 30/M11 A297 RMK A01 T03031108  RH  006%=      5-min Rain = 0
KGGS 082257Z 23008KT 30/M10 A297 RMK A01 T03031104  RH  006%=      5-min Rain = 0
KGGS 082258Z 23006KT 30/M11 A297 RMK A01 T03041105  RH  006%=      5-min Rain = 0
KGGS 082259Z 22008KT 31/M11 A297 RMK A01 T03051107  RH  006%=      5-min Rain = 0
KGGS 082300Z 23006KT 30/M11 A297 RMK A01 T03041106  RH  006%=      5-min Rain = 0
KGGS 082301Z 23008KT 30/M11 A297 RMK A01 T03041106  RH  006%=      5-min Rain = 0
KGGS 082302Z 23007KT 30/M11 A297 RMK A01 T03041108  RH  006%=      5-min Rain = 0
KGGS 082303Z 22006KT 30/M11 A297 RMK A01 T03041106  RH  006%=      5-min Rain = 0
KGGS 082304Z 22006KT 30/M10 A297 RMK A01 T03041104  RH  006%=      5-min Rain = 0
KGGS 082305Z 22007KT 30/M11 A297 RMK A01 T03041108  RH  006%=      5-min Rain = 0
KGGS 082306Z 23007KT 30/M11 A297 RMK A01 T03031105  RH  006%=      5-min Rain = 0
KGGS 082307Z 22004KT 30/M11 A297 RMK A01 T03031105  RH  006%=      5-min Rain = 0
KGGS 082308Z 21003KT 30/M11 A297 RMK A01 T03031108  RH  006%=      5-min Rain = 0
KGGS 082309Z 23004KT 30/M11 A297 RMK A01 T03021108  RH  006%=      5-min Rain = 0
KGGS 082310Z 25006KT 30/M10 A297 RMK A01 T03011104  RH  007%=      5-min Rain = 0
KGGS 082311Z 25006KT 30/M10 A297 RMK A01 T03011102  RH  007%=      5-min Rain = 0
KGGS 082312Z 25006KT 30/M10 A297 RMK A01 T03011104  RH  007%=      5-min Rain = 0
KGGS 082313Z 25007KT 30/M10 A297 RMK A01 T03011104  RH  006%=      5-min Rain = 0
KGGS 082314Z 25005KT 30/M11 A297 RMK A01 T03011107  RH  006%=      5-min Rain = 0
KGGS 082315Z 27004KT 30/M11 A2969 RMK A01 T03001107  RH  006%=      5-min Rain = 0
KGGS 082316Z 22008KT 30/M10 A2969 RMK A01 T03001102  RH  007%=      5-min Rain = 0
KGGS 082317Z 21004KT 30/M11 A2969 RMK A01 T03001105  RH  006%=      5-min Rain = 0
KGGS 082318Z 21005KT 30/M11 A2969 RMK A01 T03011107  RH  006%=      5-min Rain = 0
KGGS 082319Z 22004KT 30/M11 A2969 RMK A01 T03011106  RH  006%=      5-min Rain = 0
KGGS 082320Z 22002KT 30/M10 A2969 RMK A01 T03011103  RH  007%=      5-min Rain = 0
KGGS 082321Z 23003KT 30/M10 A2969 RMK A01 T03011104  RH  006%=      5-min Rain = 0
KGGS 082322Z 19004KT 30/M11 A2969 RMK A01 T03011106  RH  006%=      5-min Rain = 0
KGGS 082323Z 18004KT 30/M11 A2969 RMK A01 T03011107  RH  006%=      5-min Rain = 0
KGGS 082324Z 20004KT 30/M11 A2969 RMK A01 T03001106  RH  006%=      5-min Rain = 0
KGGS 082325Z 20004KT 30/M11 A2969 RMK A01 T03001105  RH  006%=      5-min Rain = 0
KGGS 082326Z 18004KT 30/M11 A2969 RMK A01 T03001105  RH  006%=      5-min Rain = 0
KGGS 082327Z 17005KT 30/M11 A2969 RMK A01 T03001105  RH  006%=      5-min Rain = 0
KGGS 082328Z 18005KT 30/M11 A2969 RMK A01 T03001105  RH  007%=      5-min Rain = 0
KGGS 082329Z 18003KT 30/M11 A2969 RMK A01 T02991106  RH  006%=      5-min Rain = 0
KGGS 082330Z 16002KT 30/M11 A2969 RMK A01 T02981108  RH  006%=      5-min Rain = 0
KGGS 082331Z 18002KT 30/M11 A2969 RMK A01 T02971108  RH  006%=      5-min Rain = 0
KGGS 082332Z 20001KT 30/M11 A2969 RMK A01 T02971106  RH  007%=      5-min Rain = 0
KGGS 082333Z 20003KT 30/M10 A2969 RMK A01 T02961103  RH  007%=      5-min Rain = 0
KGGS 082334Z 20003KT 30/M11 A2969 RMK A01 T02961105  RH  007%=      5-min Rain = 0
KGGS 082335Z 19002KT 30/M11 A2969 RMK A01 T02961109  RH  006%=      5-min Rain = 0
KGGS 082336Z 14002KT 30/M11 A2969 RMK A01 T02961108  RH  006%=      5-min Rain = 0
KGGS 082337Z 12002KT 30/M11 A2969 RMK A01 T02961106  RH  007%=      5-min Rain = 0
KGGS 082338Z 15004KT 30/M11 A2969 RMK A01 T02971106  RH  007%=      5-min Rain = 0
KGGS 082339Z 15005KT 30/M11 A2969 RMK A01 T02971106  RH  007%=      5-min Rain = 0
KGGS 082340Z 15006KT 30/M11 A2969 RMK A01 T02981108  RH  006%=      5-min Rain = 0
KGGS 082341Z 17006KT 30/M11 A2969 RMK A01 T02981105  RH  007%=      5-min Rain = 0
KGGS 082342Z 17005KT 30/M11 A2969 RMK A01 T02991108  RH  006%=      5-min Rain = 0
KGGS 082343Z 16004KT 30/M11 A2969 RMK A01 T03001109  RH  006%=      5-min Rain = 0
KGGS 082344Z 15004KT 30/M11 A2969 RMK A01 T03011108  RH  006%=      5-min Rain = 0
KGGS 082345Z 16004KT 30/M11 A2969 RMK A01 T03011106  RH  006%=      5-min Rain = 0
KGGS 082346Z 17003KT 30/M11 A2969 RMK A01 T03011109  RH  006%=      5-min Rain = 0
KGGS 082347Z 17003KT 30/M11 A2969 RMK A01 T03001108  RH  006%=      5-min Rain = 0
KGGS 082348Z 16003KT 30/M11 A2969 RMK A01 T03001110  RH  006%=      5-min Rain = 0
KGGS 082349Z 18005KT 30/M11 A2969 RMK A01 T03011109  RH  006%=      5-min Rain = 0
KGGS 082350Z 18005KT 30/M11 A2969 RMK A01 T03011112  RH  006%=      5-min Rain = 0
KGGS 082351Z 17004KT 30/M11 A2969 RMK A01 T03011113  RH  006%=      5-min Rain = 0
KGGS 082352Z 19006KT 30/M11 A2969 RMK A01 T03011113  RH  006%=      5-min Rain = 0
KGGS 082353Z 18006KT 30/M11 A2969 RMK A01 T03011111  RH  006%=      5-min Rain = 0
KGGS 082354Z 18005KT 30/M11 A2969 RMK A01 T03011110  RH  006%=      5-min Rain = 0
KGGS 082355Z 16005KT 30/M11 A2969 RMK A01 T03011108  RH  006%=      5-min Rain = 0
KGGS 082356Z 16004KT 30/M11 A2969 RMK A01 T03011109  RH  006%=      5-min Rain = 0
KGGS 082357Z 18004KT 30/M11 A2969 RMK A01 T03021107  RH  006%=      5-min Rain = 0
KGGS 082358Z 19005KT 30/M11 A2969 RMK A01 T03021108  RH  006%=      5-min Rain = 0
KGGS 082359Z 19004KT 30/M11 A2969 RMK A01 T03021112  RH  006%=      5-min Rain = 0
KGGS 090000Z 17004KT 30/M11 A2968 RMK A01 T03021111  RH  006%=      5-min Rain = 0
KGGS 090001Z 16003KT 30/M11 A2968 RMK A01 T03011109  RH  006%=      5-min Rain = 0
KGGS 090002Z 16003KT 30/M11 A2968 RMK A01 T03011110  RH  006%=      5-min Rain = 0
KGGS 090003Z 17003KT 30/M11 A2968 RMK A01 T03021108  RH  006%=      5-min Rain = 0
KGGS 090004Z 17003KT 30/M11 A2968 RMK A01 T03011113  RH  006%=      5-min Rain = 0
KGGS 090005Z 17003KT 30/M11 A2968 RMK A01 T03011109  RH  006%=      5-min Rain = 0
KGGS 090006Z 16005KT 30/M11 A2968 RMK A01 T03011109  RH  006%=      5-min Rain = 0
KGGS 090007Z 18004KT 30/M11 A2968 RMK A01 T03021112  RH  006%=      5-min Rain = 0
KGGS 090008Z 18003KT 30/M11 A2968 RMK A01 T03011111  RH  006%=      5-min Rain = 0
KGGS 090009Z 19004KT 30/M11 A2968 RMK A01 T03011111  RH  006%=      5-min Rain = 0
KGGS 090010Z 18003KT 30/M11 A2968 RMK A01 T03011112  RH  006%=      5-min Rain = 0
KGGS 090011Z 17004KT 30/M11 A2968 RMK A01 T03011110  RH  006%=      5-min Rain = 0
KGGS 090012Z 18005KT 30/M11 A2968 RMK A01 T03021109  RH  006%=      5-min Rain = 0
KGGS 090013Z 18005KT 30/M11 A2968 RMK A01 T03011109  RH  006%=      5-min Rain = 0
KGGS 090014Z 16005KT 30/M11 A2968 RMK A01 T03001107  RH  006%=      5-min Rain = 0
KGGS 090015Z 17006KT 30/M11 A2968 RMK A01 T03001108  RH  006%=      5-min Rain = 0
KGGS 090016Z 17006KT 30/M11 A2968 RMK A01 T03001110  RH  006%=      5-min Rain = 0
KGGS 090017Z 17007KT 30/M11 A2968 RMK A01 T02991111  RH  006%=      5-min Rain = 0
KGGS 090018Z 16006KT 30/M11 A2968 RMK A01 T02981111  RH  006%=      5-min Rain = 0
KGGS 090019Z 16006KT 30/M11 A2968 RMK A01 T02981109  RH  006%=      5-min Rain = 0
KGGS 090020Z 16005KT 30/M11 A2968 RMK A01 T02971109  RH  006%=      5-min Rain = 0
KGGS 090021Z 15006KT 30/M11 A2968 RMK A01 T02971107  RH  007%=      5-min Rain = 0
KGGS 090022Z 15005KT 30/M11 A2968 RMK A01 T02961105  RH  007%=      5-min Rain = 0
KGGS 090023Z 13005KT 30/M10 A2968 RMK A01 T02951104  RH  007%=      5-min Rain = 0
KGGS 090024Z 14005KT 29/M10 A2968 RMK A01 T02941103  RH  007%=      5-min Rain = 0
KGGS 090025Z 14005KT 29/M10 A2968 RMK A01 T02931103  RH  007%=      5-min Rain = 0
KGGS 090026Z 14005KT 29/M10 A2968 RMK A01 T02931103  RH  007%=      5-min Rain = 0
KGGS 090027Z 14006KT 29/M10 A2968 RMK A01 T02921102  RH  007%=      5-min Rain = 0
KGGS 090028Z 14007KT 29/M10 A2968 RMK A01 T02911104  RH  007%=      5-min Rain = 0
KGGS 090029Z 14006KT 29/M10 A2968 RMK A01 T02911104  RH  007%=      5-min Rain = 0
KGGS 090030Z 14005KT 29/M10 A2968 RMK A01 T02901104  RH  007%=      5-min Rain = 0
KGGS 090031Z 14006KT 29/M10 A2968 RMK A01 T02901104  RH  007%=      5-min Rain = 0
KGGS 090032Z 14005KT 29/M10 A2968 RMK A01 T02891104  RH  007%=      5-min Rain = 0
KGGS 090033Z 13004KT 29/M10 A2968 RMK A01 T02891102  RH  007%=      5-min Rain = 0
KGGS 090034Z 13005KT 29/M10 A2968 RMK A01 T02881102  RH  007%=      5-min Rain = 0
KGGS 090035Z 13004KT 29/M10 A2968 RMK A01 T02871102  RH  007%=      5-min Rain = 0
KGGS 090036Z 12005KT 29/M10 A2968 RMK A01 T02871102  RH  007%=      5-min Rain = 0
KGGS 090037Z 12004KT 29/M10 A2968 RMK A01 T02861102  RH  007%=      5-min Rain = 0
KGGS 090038Z 11003KT 29/M10 A2968 RMK A01 T02851101  RH  007%=      5-min Rain = 0
KGGS 090039Z 11002KT 29/M10 A2968 RMK A01 T02851102  RH  007%=      5-min Rain = 0
KGGS 090040Z 11002KT 28/M10 A2968 RMK A01 T02841102  RH  007%=      5-min Rain = 0
KGGS 090041Z 09001KT 28/M10 A2968 RMK A01 T02841102  RH  007%=      5-min Rain = 0
KGGS 090042Z 11000KT 28/M10 A2968 RMK A01 T02841102  RH  007%=      5-min Rain = 0
KGGS 090043Z 00000KT 29/M10 A2968 RMK A01 T02851102  RH  007%=      5-min Rain = 0
KGGS 090044Z 12000KT 29/M10 A2968 RMK A01 T02851102  RH  007%=      5-min Rain = 0
KGGS 090045Z 11002KT 29/M10 A2968 RMK A01 T02851102  RH  007%=      5-min Rain = 0
KGGS 090046Z 12003KT 28/M10 A2968 RMK A01 T02841102  RH  007%=      5-min Rain = 0
KGGS 090047Z 11003KT 28/M10 A2968 RMK A01 T02841101  RH  007%=      5-min Rain = 0
KGGS 090048Z 13003KT 28/M10 A2968 RMK A01 T02821100  RH  007%=      5-min Rain = 0
KGGS 090049Z 13004KT 28/M10 A2968 RMK A01 T02811099  RH  008%=      5-min Rain = 0
KGGS 090050Z 12004KT 28/M10 A2968 RMK A01 T02791100  RH  008%=      5-min Rain = 0
KGGS 090051Z 12004KT 28/M10 A2968 RMK A01 T02781100  RH  008%=      5-min Rain = 0
KGGS 090052Z 13004KT 28/M10 A2968 RMK A01 T02771100  RH  008%=      5-min Rain = 0
KGGS 090053Z 13005KT 28/M10 A2968 RMK A01 T02751101  RH  008%=      5-min Rain = 0
KGGS 090054Z 13005KT 27/M10 A2968 RMK A01 T02741100  RH  008%=      5-min Rain = 0
KGGS 090055Z 13006KT 27/M10 A2968 RMK A01 T02731099  RH  008%=      5-min Rain = 0
KGGS 090056Z 13005KT 27/M10 A2968 RMK A01 T02721100  RH  008%=      5-min Rain = 0
KGGS 090057Z 13005KT 27/M10 A2968 RMK A01 T02711101  RH  008%=      5-min Rain = 0
KGGS 090058Z 12005KT 27/M10 A2968 RMK A01 T02701102  RH  008%=      5-min Rain = 0
KGGS 090059Z 12005KT 27/M10 A2968 RMK A01 T02711102  RH  008%=      5-min Rain = 0
KGGS 090100Z 12005KT 27/M10 A2968 RMK A01 T02701101  RH  008%=      5-min Rain = 0
KGGS 090101Z 14005KT 27/M10 A2968 RMK A01 T02701102  RH  008%=      5-min Rain = 0
KGGS 090102Z 16004KT 27/M10 A2968 RMK A01 T02691102  RH  008%=      5-min Rain = 0
KGGS 090103Z 14004KT 27/M10 A2968 RMK A01 T02681102  RH  008%=      5-min Rain = 0
KGGS 090104Z 14004KT 27/M10 A2968 RMK A01 T02671101  RH  008%=      5-min Rain = 0
KGGS 090105Z 15004KT 27/M10 A2968 RMK A01 T02661103  RH  008%=      5-min Rain = 0
KGGS 090106Z 15004KT 27/M11 A2968 RMK A01 T02671105  RH  008%=      5-min Rain = 0
KGGS 090107Z 14004KT 27/M10 A2968 RMK A01 T02671102  RH  008%=      5-min Rain = 0
KGGS 090108Z 14005KT 27/M10 A2967 RMK A01 T02661103  RH  008%=      5-min Rain = 0
KGGS 090109Z 13005KT 26/M10 A2967 RMK A01 T02641103  RH  008%=      5-min Rain = 0
KGGS 090110Z 13006KT 26/M10 A2967 RMK A01 T02631103  RH  008%=      5-min Rain = 0
KGGS 090111Z 12005KT 26/M10 A2967 RMK A01 T02611103  RH  008%=      5-min Rain = 0
KGGS 090112Z 13005KT 26/M10 A2967 RMK A01 T02601103  RH  008%=      5-min Rain = 0
KGGS 090113Z 15004KT 26/M10 A2967 RMK A01 T02581103  RH  008%=      5-min Rain = 0
KGGS 090114Z 14005KT 26/M10 A2967 RMK A01 T02551103  RH  009%=      5-min Rain = 0
KGGS 090115Z 13005KT 25/M10 A2967 RMK A01 T02521103  RH  009%=      5-min Rain = 0
KGGS 090116Z 13005KT 25/M10 A2967 RMK A01 T02501103  RH  009%=      5-min Rain = 0
KGGS 090117Z 13004KT 25/M10 A2967 RMK A01 T02491104  RH  009%=      5-min Rain = 0
KGGS 090118Z 14004KT 25/M10 A2967 RMK A01 T02501104  RH  009%=      5-min Rain = 0
KGGS 090119Z 14004KT 25/M10 A2967 RMK A01 T02521104  RH  009%=      5-min Rain = 0
KGGS 090120Z 16004KT 25/M11 A2967 RMK A01 T02531105  RH  009%=      5-min Rain = 0
KGGS 090121Z 15004KT 25/M11 A2967 RMK A01 T02541105  RH  008%=      5-min Rain = 0
KGGS 090122Z 13005KT 26/M11 A2967 RMK A01 T02551105  RH  008%=      5-min Rain = 0
KGGS 090123Z 13005KT 26/M11 A2967 RMK A01 T02551105  RH  008%=      5-min Rain = 0
KGGS 090124Z 13005KT 26/M11 A2967 RMK A01 T02551105  RH  008%=      5-min Rain = 0
KGGS 090125Z 13005KT 25/M10 A2967 RMK A01 T02541104  RH  009%=      5-min Rain = 0
KGGS 090126Z 13005KT 25/M10 A2967 RMK A01 T02531104  RH  009%=      5-min Rain = 0
KGGS 090127Z 13005KT 25/M10 A2967 RMK A01 T02511104  RH  009%=      5-min Rain = 0
KGGS 090128Z 13005KT 25/M10 A2967 RMK A01 T02501104  RH  009%=      5-min Rain = 0
KGGS 090129Z 13005KT 25/M10 A2967 RMK A01 T02491104  RH  009%=      5-min Rain = 0
KGGS 090130Z 14005KT 25/M10 A2967 RMK A01 T02471104  RH  009%=      5-min Rain = 0
KGGS 090131Z 14005KT 25/M10 A2967 RMK A01 T02461104  RH  009%=      5-min Rain = 0
KGGS 090132Z 14006KT 25/M10 A2967 RMK A01 T02451104  RH  009%=      5-min Rain = 0
KGGS 090133Z 14006KT 24/M10 A2967 RMK A01 T02441104  RH  009%=      5-min Rain = 0
KGGS 090134Z 14006KT 24/M11 A2967 RMK A01 T02431105  RH  009%=      5-min Rain = 0
KGGS 090135Z 14005KT 24/M11 A2967 RMK A01 T02431106  RH  009%=      5-min Rain = 0
KGGS 090136Z 13006KT 24/M11 A2967 RMK A01 T02441106  RH  009%=      5-min Rain = 0
KGGS 090137Z 13005KT 25/M11 A2967 RMK A01 T02451105  RH  009%=      5-min Rain = 0
KGGS 090138Z 12005KT 24/M11 A2967 RMK A01 T02441105  RH  009%=      5-min Rain = 0
KGGS 090139Z 13006KT 24/M10 A2968 RMK A01 T02431104  RH  009%=      5-min Rain = 0
KGGS 090140Z 13006KT 24/M10 A2968 RMK A01 T02421103  RH  009%=      5-min Rain = 0
KGGS 090141Z 14006KT 24/M10 A2968 RMK A01 T02411102  RH  009%=      5-min Rain = 0
KGGS 090142Z 14007KT 24/M10 A2968 RMK A01 T02411102  RH  009%=      5-min Rain = 0
KGGS 090143Z 14006KT 24/M10 A2968 RMK A01 T02411102  RH  009%=      5-min Rain = 0
KGGS 090144Z 13006KT 24/M10 A2968 RMK A01 T02401102  RH  009%=      5-min Rain = 0
KGGS 090145Z 14006KT 24/M10 A2968 RMK A01 T02401102  RH  009%=      5-min Rain = 0
KGGS 090146Z 14005KT 24/M10 A2968 RMK A01 T02411102  RH  009%=      5-min Rain = 0
KGGS 090147Z 14005KT 24/M10 A2968 RMK A01 T02421101  RH  009%=      5-min Rain = 0
KGGS 090148Z 14004KT 24/M10 A2968 RMK A01 T02421101  RH  009%=      5-min Rain = 0
KGGS 090149Z 15004KT 24/M10 A2968 RMK A01 T02401101  RH  009%=      5-min Rain = 0
KGGS 090150Z 15004KT 24/M10 A2968 RMK A01 T02391102  RH  010%=      5-min Rain = 0
KGGS 090151Z 15004KT 24/M10 A2968 RMK A01 T02371102  RH  010%=      5-min Rain = 0
KGGS 090152Z 15004KT 24/M10 A2967 RMK A01 T02361103  RH  010%=      5-min Rain = 0
KGGS 090153Z 15004KT 24/M10 A2967 RMK A01 T02351103  RH  010%=      5-min Rain = 0
KGGS 090154Z 15005KT 23/M10 A2967 RMK A01 T02341102  RH  010%=      5-min Rain = 0
KGGS 090155Z 14005KT 23/M10 A2967 RMK A01 T02341102  RH  010%=      5-min Rain = 0
KGGS 090156Z 14005KT 23/M10 A2967 RMK A01 T02341102  RH  010%=      5-min Rain = 0
KGGS 090157Z 14005KT 23/M10 A2967 RMK A01 T02331102  RH  010%=      5-min Rain = 0
KGGS 090158Z 14006KT 23/M10 A2967 RMK A01 T02331102  RH  010%=      5-min Rain = 0
KGGS 090159Z 15005KT 23/M10 A2967 RMK A01 T02311101  RH  010%=      5-min Rain = 0
KGGS 090200Z 14006KT 23/M10 A2967 RMK A01 T02301101  RH  010%=      5-min Rain = 0
KGGS 090201Z 14006KT 23/M10 A2967 RMK A01 T02291102  RH  010%=      5-min Rain = 0
KGGS 090202Z 15005KT 23/M10 A2967 RMK A01 T02281101  RH  010%=      5-min Rain = 0
KGGS 090203Z 15006KT 23/M10 A2967 RMK A01 T02271101  RH  010%=      5-min Rain = 0
KGGS 090204Z 15007KT 23/M10 A2967 RMK A01 T02261101  RH  010%=      5-min Rain = 0
KGGS 090205Z 15007KT 23/M10 A2968 RMK A01 T02251101  RH  010%=      5-min Rain = 0
KGGS 090206Z 14008KT 23/M10 A2968 RMK A01 T02251101  RH  010%=      5-min Rain = 0
KGGS 090207Z 14008KT 23/M10 A2968 RMK A01 T02261099  RH  011%=      5-min Rain = 0
KGGS 090208Z 14007KT 23/M10 A2968 RMK A01 T02281098  RH  011%=      5-min Rain = 0
KGGS 090209Z 15006KT 23/M10 A2968 RMK A01 T02301098  RH  010%=      5-min Rain = 0
KGGS 090210Z 15006KT 23/M10 A2968 RMK A01 T02311098  RH  010%=      5-min Rain = 0
KGGS 090211Z 14006KT 23/M10 A2968 RMK A01 T02311098  RH  010%=      5-min Rain = 0
KGGS 090212Z 14005KT 23/M10 A2968 RMK A01 T02301099  RH  010%=      5-min Rain = 0
KGGS 090213Z 14006KT 23/M10 A2968 RMK A01 T02271099  RH  010%=      5-min Rain = 0
KGGS 090214Z 14005KT 23/M10 A2968 RMK A01 T02251099  RH  011%=      5-min Rain = 0
KGGS 090215Z 14005KT 23/M10 A2968 RMK A01 T02251099  RH  011%=      5-min Rain = 0
KGGS 090216Z 14005KT 23/M10 A2968 RMK A01 T02251099  RH  011%=      5-min Rain = 0
KGGS 090217Z 14005KT 23/M10 A2968 RMK A01 T02251098  RH  011%=      5-min Rain = 0
KGGS 090218Z 14006KT 23/M10 A2968 RMK A01 T02251098  RH  011%=      5-min Rain = 0
KGGS 090219Z 16005KT 23/M10 A2968 RMK A01 T02251098  RH  011%=      5-min Rain = 0
KGGS 090220Z 14005KT 23/M10 A2968 RMK A01 T02251098  RH  011%=      5-min Rain = 0
KGGS 090221Z 15005KT 22/M10 A2968 RMK A01 T02241097  RH  011%=      5-min Rain = 0
KGGS 090222Z 14005KT 22/M10 A2968 RMK A01 T02231097  RH  011%=      5-min Rain = 0
KGGS 090223Z 14005KT 22/M10 A2968 RMK A01 T02231098  RH  011%=      5-min Rain = 0
KGGS 090224Z 14005KT 22/M10 A2968 RMK A01 T02231098  RH  011%=      5-min Rain = 0
KGGS 090225Z 14005KT 22/M10 A2968 RMK A01 T02231097  RH  011%=      5-min Rain = 0
KGGS 090226Z 13006KT 22/M10 A2968 RMK A01 T02221097  RH  011%=      5-min Rain = 0
KGGS 090227Z 13006KT 22/M10 A2968 RMK A01 T02221096  RH  011%=      5-min Rain = 0
KGGS 090228Z 13006KT 22/M10 A2968 RMK A01 T02221096  RH  011%=      5-min Rain = 0
KGGS 090229Z 13006KT 22/M10 A2967 RMK A01 T02221096  RH  011%=      5-min Rain = 0
KGGS 090230Z 13006KT 22/M10 A2967 RMK A01 T02221096  RH  011%=      5-min Rain = 0
KGGS 090231Z 13006KT 22/M10 A2968 RMK A01 T02221096  RH  011%=      5-min Rain = 0
KGGS 090232Z 14007KT 22/M10 A2968 RMK A01 T02211095  RH  011%=      5-min Rain = 0
KGGS 090233Z 14007KT 22/M09 A2968 RMK A01 T02211094  RH  011%=      5-min Rain = 0
KGGS 090234Z 14007KT 22/M09 A2968 RMK A01 T02201093  RH  011%=      5-min Rain = 0
KGGS 090235Z 14007KT 22/M09 A2968 RMK A01 T02191093  RH  012%=      5-min Rain = 0
KGGS 090236Z 14007KT 22/M09 A2968 RMK A01 T02181092  RH  012%=      5-min Rain = 0
KGGS 090237Z 14007KT 22/M09 A2968 RMK A01 T02171091  RH  012%=      5-min Rain = 0
KGGS 090238Z 14008KT 22/M09 A2968 RMK A01 T02171091  RH  012%=      5-min Rain = 0
KGGS 090239Z 14008KT 22/M09 A2968 RMK A01 T02161091  RH  012%=      5-min Rain = 0
KGGS 090240Z 14007KT 22/M09 A2968 RMK A01 T02161090  RH  012%=      5-min Rain = 0
KGGS 090241Z 14007KT 22/M09 A2968 RMK A01 T02161090  RH  012%=      5-min Rain = 0
KGGS 090242Z 14007KT 22/M09 A2968 RMK A01 T02161090  RH  012%=      5-min Rain = 0
KGGS 090243Z 14007KT 22/M09 A2968 RMK A01 T02161089  RH  012%=      5-min Rain = 0
KGGS 090244Z 14008KT 22/M09 A2968 RMK A01 T02161089  RH  012%=      5-min Rain = 0
KGGS 090245Z 14008KT 22/M09 A2968 RMK A01 T02161088  RH  012%=      5-min Rain = 0
KGGS 090246Z 14007KT 22/M09 A2968 RMK A01 T02151088  RH  012%=      5-min Rain = 0
KGGS 090247Z 14008KT 21/M09 A2968 RMK A01 T02141088  RH  012%=      5-min Rain = 0
KGGS 090248Z 14008KT 21/M09 A2968 RMK A01 T02131088  RH  012%=      5-min Rain = 0
KGGS 090249Z 14008KT 21/M09 A2968 RMK A01 T02131088  RH  012%=      5-min Rain = 0
KGGS 090250Z 14007KT 21/M09 A2968 RMK A01 T02121088  RH  013%=      5-min Rain = 0
KGGS 090251Z 15007KT 21/M09 A2968 RMK A01 T02111088  RH  013%=      5-min Rain = 0
KGGS 090252Z 14006KT 21/M09 A2968 RMK A01 T02111088  RH  013%=      5-min Rain = 0
KGGS 090253Z 14007KT 21/M09 A2968 RMK A01 T02111088  RH  013%=      5-min Rain = 0
KGGS 090254Z 14007KT 21/M09 A2968 RMK A01 T02101088  RH  013%=      5-min Rain = 0
KGGS 090255Z 14008KT 21/M09 A2968 RMK A01 T02091087  RH  013%=      5-min Rain = 0
KGGS 090256Z 14008KT 21/M09 A2968 RMK A01 T02091086  RH  013%=      5-min Rain = 0
KGGS 090257Z 14007KT 21/M09 A2968 RMK A01 T02081086  RH  013%=      5-min Rain = 0
KGGS 090258Z 14007KT 21/M09 A2968 RMK A01 T02081085  RH  013%=      5-min Rain = 0
KGGS 090259Z 14007KT 21/M09 A2968 RMK A01 T02071085  RH  013%=      5-min Rain = 0
KGGS 090300Z 13006KT 21/M09 A2968 RMK A01 T02071085  RH  013%=      5-min Rain = 0
KGGS 090301Z 14006KT 21/M09 A2968 RMK A01 T02061085  RH  013%=      5-min Rain = 0
KGGS 090302Z 13006KT 21/M09 A2968 RMK A01 T02061085  RH  013%=      5-min Rain = 0
KGGS 090303Z 14006KT 21/M09 A2968 RMK A01 T02051085  RH  013%=      5-min Rain = 0
KGGS 090304Z 14006KT 21/M09 A2968 RMK A01 T02051086  RH  013%=      5-min Rain = 0
KGGS 090305Z 14006KT 20/M09 A2968 RMK A01 T02041086  RH  013%=      5-min Rain = 0
KGGS 090306Z 14006KT 20/M09 A2968 RMK A01 T02031087  RH  013%=      5-min Rain = 0
KGGS 090307Z 14007KT 20/M09 A2968 RMK A01 T02031087  RH  013%=      5-min Rain = 0
KGGS 090308Z 14007KT 20/M09 A2968 RMK A01 T02041087  RH  013%=      5-min Rain = 0
KGGS 090309Z 13007KT 20/M09 A2968 RMK A01 T02041087  RH  013%=      5-min Rain = 0
KGGS 090310Z 14007KT 20/M09 A2968 RMK A01 T02041088  RH  013%=      5-min Rain = 0
KGGS 090311Z 14006KT 20/M09 A2968 RMK A01 T02041088  RH  013%=      5-min Rain = 0
KGGS 090312Z 13006KT 21/M09 A2968 RMK A01 T02051088  RH  013%=      5-min Rain = 0
KGGS 090313Z 14006KT 21/M09 A2968 RMK A01 T02051088  RH  013%=      5-min Rain = 0
KGGS 090314Z 14006KT 21/M09 A2968 RMK A01 T02051088  RH  013%=      5-min Rain = 0
KGGS 090315Z 14006KT 20/M09 A2968 RMK A01 T02041089  RH  013%=      5-min Rain = 0
KGGS 090316Z 14007KT 20/M09 A2968 RMK A01 T02041089  RH  013%=      5-min Rain = 0
KGGS 090317Z 14006KT 20/M09 A2968 RMK A01 T02031090  RH  013%=      5-min Rain = 0
KGGS 090318Z 15006KT 20/M09 A2968 RMK A01 T02031091  RH  013%=      5-min Rain = 0
KGGS 090319Z 15007KT 20/M09 A2968 RMK A01 T02031091  RH  013%=      5-min Rain = 0
KGGS 090320Z 14007KT 20/M09 A2968 RMK A01 T02021091  RH  013%=      5-min Rain = 0
KGGS 090321Z 14006KT 20/M09 A2968 RMK A01 T02021092  RH  013%=      5-min Rain = 0
KGGS 090322Z 14006KT 20/M09 A2968 RMK A01 T02021092  RH  013%=      5-min Rain = 0
KGGS 090323Z 14005KT 20/M09 A2968 RMK A01 T02021092  RH  013%=      5-min Rain = 0
KGGS 090324Z 13005KT 20/M09 A2968 RMK A01 T02021092  RH  013%=      5-min Rain = 0
KGGS 090325Z 13006KT 20/M09 A2968 RMK A01 T02021092  RH  013%=      5-min Rain = 0
KGGS 090326Z 13006KT 20/M09 A2967 RMK A01 T02031092  RH  013%=      5-min Rain = 0
KGGS 090327Z 13006KT 20/M09 A2967 RMK A01 T02031091  RH  013%=      5-min Rain = 0
KGGS 090328Z 13006KT 20/M09 A2967 RMK A01 T02041091  RH  013%=      5-min Rain = 0
KGGS 090329Z 13006KT 20/M09 A2967 RMK A01 T02041090  RH  013%=      5-min Rain = 0
KGGS 090330Z 13006KT 21/M09 A2967 RMK A01 T02051090  RH  013%=      5-min Rain = 0
KGGS 090331Z 13006KT 21/M09 A2967 RMK A01 T02051090  RH  013%=      5-min Rain = 0
KGGS 090332Z 14006KT 20/M09 A2967 RMK A01 T02041090  RH  013%=      5-min Rain = 0
KGGS 090333Z 14006KT 20/M09 A2967 RMK A01 T02041090  RH  013%=      5-min Rain = 0
KGGS 090334Z 13007KT 20/M09 A2967 RMK A01 T02031089  RH  013%=      5-min Rain = 0
KGGS 090335Z 14006KT 20/M09 A2967 RMK A01 T02031089  RH  013%=      5-min Rain = 0
KGGS 090336Z 13007KT 20/M09 A2967 RMK A01 T02031089  RH  013%=      5-min Rain = 0
KGGS 090337Z 14006KT 20/M09 A2967 RMK A01 T02021088  RH  013%=      5-min Rain = 0
KGGS 090338Z 14006KT 20/M09 A2967 RMK A01 T02021088  RH  013%=      5-min Rain = 0
KGGS 090339Z 14006KT 20/M09 A2967 RMK A01 T02011087  RH  013%=      5-min Rain = 0
KGGS 090340Z 14006KT 20/M09 A2967 RMK A01 T02011087  RH  014%=      5-min Rain = 0
KGGS 090341Z 14006KT 20/M09 A2967 RMK A01 T02001087  RH  014%=      5-min Rain = 0
KGGS 090342Z 15006KT 20/M09 A2967 RMK A01 T01991086  RH  014%=      5-min Rain = 0
KGGS 090343Z 14007KT 20/M09 A2967 RMK A01 T01981086  RH  014%=      5-min Rain = 0
KGGS 090344Z 14006KT 20/M09 A2967 RMK A01 T01991085  RH  014%=      5-min Rain = 0
KGGS 090345Z 14006KT 20/M09 A2967 RMK A01 T02011085  RH  014%=      5-min Rain = 0
KGGS 090346Z 14006KT 20/M09 A2967 RMK A01 T02021085  RH  014%=      5-min Rain = 0
KGGS 090347Z 13006KT 20/M08 A2967 RMK A01 T02011084  RH  014%=      5-min Rain = 0
KGGS 090348Z 14006KT 20/M08 A2967 RMK A01 T02001084  RH  014%=      5-min Rain = 0
KGGS 090349Z 14005KT 20/M08 A2967 RMK A01 T01991084  RH  014%=      5-min Rain = 0
KGGS 090350Z 13005KT 20/M08 A2967 RMK A01 T01981084  RH  014%=      5-min Rain = 0
KGGS 090351Z 13005KT 20/M09 A2967 RMK A01 T01971085  RH  014%=      5-min Rain = 0
KGGS 090352Z 13005KT 20/M08 A2967 RMK A01 T01961084  RH  014%=      5-min Rain = 0
KGGS 090353Z 13005KT 20/M08 A2967 RMK A01 T01951084  RH  014%=      5-min Rain = 0
KGGS 090354Z 13006KT 20/M08 A2967 RMK A01 T01951083  RH  014%=      5-min Rain = 0
KGGS 090355Z 13006KT 20/M08 A2967 RMK A01 T01951083  RH  014%=      5-min Rain = 0
KGGS 090356Z 14006KT 20/M08 A2967 RMK A01 T01951083  RH  014%=      5-min Rain = 0
KGGS 090357Z 13006KT 20/M08 A2967 RMK A01 T01951082  RH  015%=      5-min Rain = 0
KGGS 090358Z 13006KT 20/M08 A2967 RMK A01 T01951082  RH  015%=      5-min Rain = 0
KGGS 090359Z 13006KT 20/M08 A2967 RMK A01 T01951081  RH  015%=      5-min Rain = 0
KGGS 090400Z 13006KT 19/M08 A2967 RMK A01 T01941081  RH  015%=      5-min Rain = 0
KGGS 090401Z 12005KT 19/M08 A2967 RMK A01 T01931081  RH  015%=      5-min Rain = 0
KGGS 090402Z 12005KT 19/M08 A2967 RMK A01 T01921080  RH  015%=      5-min Rain = 0
KGGS 090403Z 12005KT 19/M08 A2967 RMK A01 T01921080  RH  015%=      5-min Rain = 0
KGGS 090404Z 12005KT 19/M08 A2966 RMK A01 T01921079  RH  015%=      5-min Rain = 0
KGGS 090405Z 12005KT 19/M08 A2966 RMK A01 T01921079  RH  015%=      5-min Rain = 0
KGGS 090406Z 12004KT 19/M08 A2966 RMK A01 T01921078  RH  015%=      5-min Rain = 0
KGGS 090407Z 12004KT 19/M08 A2966 RMK A01 T01921078  RH  015%=      5-min Rain = 0
KGGS 090408Z 12005KT 19/M08 A2966 RMK A01 T01921077  RH  015%=      5-min Rain = 0
KGGS 090409Z 12006KT 19/M08 A2967 RMK A01 T01921076  RH  016%=      5-min Rain = 0
KGGS 090410Z 11006KT 19/M07 A2966 RMK A01 T01911074  RH  016%=      5-min Rain = 0
KGGS 090411Z 12006KT 19/M07 A2967 RMK A01 T01921073  RH  016%=      5-min Rain = 0
KGGS 090412Z 12005KT 19/M07 A2967 RMK A01 T01921073  RH  016%=      5-min Rain = 0
KGGS 090413Z 12004KT 19/M07 A2967 RMK A01 T01921071  RH  016%=      5-min Rain = 0
KGGS 090414Z 12004KT 19/M07 A2967 RMK A01 T01911070  RH  016%=      5-min Rain = 0
KGGS 090415Z 12004KT 19/M07 A2967 RMK A01 T01901070  RH  017%=      5-min Rain = 0
KGGS 090416Z 10004KT 19/M07 A2967 RMK A01 T01901069  RH  017%=      5-min Rain = 0
KGGS 090417Z 11004KT 19/M07 A2966 RMK A01 T01891069  RH  017%=      5-min Rain = 0
KGGS 090418Z 11004KT 19/M07 A2966 RMK A01 T01891069  RH  017%=      5-min Rain = 0
KGGS 090419Z 11004KT 19/M07 A2966 RMK A01 T01891069  RH  017%=      5-min Rain = 0
KGGS 090420Z 12004KT 19/M07 A2966 RMK A01 T01891069  RH  017%=      5-min Rain = 0
KGGS 090421Z 12005KT 19/M07 A2966 RMK A01 T01881069  RH  017%=      5-min Rain = 0
KGGS 090422Z 12005KT 19/M07 A2966 RMK A01 T01881069  RH  017%=      5-min Rain = 0
KGGS 090423Z 12006KT 19/M07 A2966 RMK A01 T01871069  RH  017%=      5-min Rain = 0
KGGS 090424Z 13006KT 19/M07 A2967 RMK A01 T01861069  RH  017%=      5-min Rain = 0
KGGS 090425Z 13006KT 19/M07 A2967 RMK A01 T01851070  RH  017%=      5-min Rain = 0
KGGS 090426Z 12006KT 19/M07 A2967 RMK A01 T01851069  RH  017%=      5-min Rain = 0
KGGS 090427Z 11006KT 18/M07 A2966 RMK A01 T01841068  RH  017%=      5-min Rain = 0
KGGS 090428Z 11005KT 18/M07 A2966 RMK A01 T01841068  RH  017%=      5-min Rain = 0
KGGS 090429Z 11004KT 18/M07 A2966 RMK A01 T01841068  RH  017%=      5-min Rain = 0
KGGS 090430Z 11004KT 18/M07 A2966 RMK A01 T01841069  RH  017%=      5-min Rain = 0
KGGS 090431Z 13004KT 18/M07 A2966 RMK A01 T01841069  RH  017%=      5-min Rain = 0
KGGS 090432Z 12004KT 18/M07 A2966 RMK A01 T01831068  RH  017%=      5-min Rain = 0
KGGS 090433Z 12004KT 18/M07 A2966 RMK A01 T01831068  RH  018%=      5-min Rain = 0
KGGS 090434Z 12005KT 18/M07 A2966 RMK A01 T01821067  RH  018%=      5-min Rain = 0
KGGS 090435Z 13004KT 18/M07 A2966 RMK A01 T01821066  RH  018%=      5-min Rain = 0
KGGS 090436Z 13004KT 18/M07 A2966 RMK A01 T01811065  RH  018%=      5-min Rain = 0
KGGS 090437Z 13004KT 18/M07 A2966 RMK A01 T01811065  RH  018%=      5-min Rain = 0
KGGS 090438Z 13004KT 18/M07 A2966 RMK A01 T01811065  RH  018%=      5-min Rain = 0
KGGS 090439Z 13004KT 18/M06 A2966 RMK A01 T01811064  RH  018%=      5-min Rain = 0
KGGS 090440Z 13005KT 18/M06 A2966 RMK A01 T01801064  RH  018%=      5-min Rain = 0
KGGS 090441Z 13005KT 18/M06 A2966 RMK A01 T01791063  RH  019%=      5-min Rain = 0
KGGS 090442Z 13005KT 18/M06 A2966 RMK A01 T01791063  RH  019%=      5-min Rain = 0
KGGS 090443Z 13005KT 18/M06 A2966 RMK A01 T01791063  RH  019%=      5-min Rain = 0
KGGS 090444Z 13005KT 18/M06 A2966 RMK A01 T01791063  RH  019%=      5-min Rain = 0
KGGS 090445Z 13005KT 18/M06 A2966 RMK A01 T01791064  RH  019%=      5-min Rain = 0
KGGS 090446Z 13006KT 18/M06 A2966 RMK A01 T01801064  RH  018%=      5-min Rain = 0
KGGS 090447Z 13006KT 18/M06 A2966 RMK A01 T01801064  RH  018%=      5-min Rain = 0
KGGS 090448Z 13006KT 18/M06 A2966 RMK A01 T01801064  RH  018%=      5-min Rain = 0
KGGS 090449Z 13006KT 18/M06 A2966 RMK A01 T01801064  RH  018%=      5-min Rain = 0
KGGS 090450Z 13005KT 18/M06 A2966 RMK A01 T01791064  RH  018%=      5-min Rain = 0
KGGS 090451Z 13005KT 18/M07 A2966 RMK A01 T01771065  RH  019%=      5-min Rain = 0
KGGS 090452Z 13005KT 18/M07 A2966 RMK A01 T01761065  RH  019%=      5-min Rain = 0
KGGS 090453Z 14005KT 18/M07 A2966 RMK A01 T01751065  RH  019%=      5-min Rain = 0
KGGS 090454Z 13005KT 17/M07 A2966 RMK A01 T01741065  RH  019%=      5-min Rain = 0
KGGS 090455Z 13005KT 17/M07 A2966 RMK A01 T01741065  RH  019%=      5-min Rain = 0
KGGS 090456Z 13005KT 17/M07 A2966 RMK A01 T01731066  RH  019%=      5-min Rain = 0
KGGS 090457Z 13005KT 17/M07 A2966 RMK A01 T01731066  RH  019%=      5-min Rain = 0
KGGS 090458Z 13005KT 17/M07 A2966 RMK A01 T01721066  RH  019%=      5-min Rain = 0
KGGS 090459Z 13005KT 17/M07 A2966 RMK A01 T01721066  RH  019%=      5-min Rain = 0

Page generated in 0.0638 seconds.